<?xml version="1.0" encoding="UTF-8" standalone="no" ?>
<gpx xmlns="http://www.topografix.com/GPX/1/1" xmlns:xsi="http://www.w3.org/2001/XMLSchema-instance" xsi:schemaLocation="http://www.topografix.com/GPX/1/1 http://www.topografix.com/GPX/1/1/gpx.xsd" version="1.1" creator="VisuGPX - https://www.visugpx.com">
  <metadata>
    <name>séance GR69 trail-escaliers X-Rousse</name>
    <desc><![CDATA[les escaliers de la X-rousse avec Gilles comme référents
Séance du 6 janvier 2012]]></desc>
  </metadata>
  <trk>
    <name><![CDATA[2012-01-06T18:10:33Z]]></name>
    <trkseg>
      <trkpt lat="45.7772" lon="4.84522">
        <ele>177</ele>
        <time>2012-01-06T18:10:33Z</time>
      </trkpt>
      <trkpt lat="45.77721" lon="4.84522">
        <ele>177</ele>
        <time>2012-01-06T18:10:34Z</time>
      </trkpt>
      <trkpt lat="45.77726" lon="4.84519">
        <ele>177</ele>
        <time>2012-01-06T18:10:38Z</time>
      </trkpt>
      <trkpt lat="45.77735" lon="4.84517">
        <ele>176</ele>
        <time>2012-01-06T18:10:44Z</time>
      </trkpt>
      <trkpt lat="45.77736" lon="4.84517">
        <ele>176</ele>
        <time>2012-01-06T18:10:45Z</time>
      </trkpt>
      <trkpt lat="45.77738" lon="4.84518">
        <ele>176</ele>
        <time>2012-01-06T18:10:46Z</time>
      </trkpt>
      <trkpt lat="45.77741" lon="4.84522">
        <ele>176</ele>
        <time>2012-01-06T18:10:49Z</time>
      </trkpt>
      <trkpt lat="45.77751" lon="4.84523">
        <ele>176</ele>
        <time>2012-01-06T18:10:54Z</time>
      </trkpt>
      <trkpt lat="45.77755" lon="4.84521">
        <ele>176</ele>
        <time>2012-01-06T18:10:56Z</time>
      </trkpt>
      <trkpt lat="45.77761" lon="4.84518">
        <ele>176</ele>
        <time>2012-01-06T18:10:59Z</time>
      </trkpt>
      <trkpt lat="45.77764" lon="4.84517">
        <ele>176</ele>
        <time>2012-01-06T18:11:00Z</time>
      </trkpt>
      <trkpt lat="45.77773" lon="4.84513">
        <ele>176</ele>
        <time>2012-01-06T18:11:04Z</time>
      </trkpt>
      <trkpt lat="45.77775" lon="4.84512">
        <ele>176</ele>
        <time>2012-01-06T18:11:05Z</time>
      </trkpt>
      <trkpt lat="45.77786" lon="4.84514">
        <ele>176</ele>
        <time>2012-01-06T18:11:10Z</time>
      </trkpt>
      <trkpt lat="45.77791" lon="4.84518">
        <ele>176</ele>
        <time>2012-01-06T18:11:13Z</time>
      </trkpt>
      <trkpt lat="45.77796" lon="4.84523">
        <ele>177</ele>
        <time>2012-01-06T18:11:16Z</time>
      </trkpt>
      <trkpt lat="45.77806" lon="4.84533">
        <ele>177</ele>
        <time>2012-01-06T18:11:21Z</time>
      </trkpt>
      <trkpt lat="45.77813" lon="4.8454">
        <ele>177</ele>
        <time>2012-01-06T18:11:24Z</time>
      </trkpt>
      <trkpt lat="45.77818" lon="4.84545">
        <ele>177</ele>
        <time>2012-01-06T18:11:26Z</time>
      </trkpt>
      <trkpt lat="45.7782" lon="4.8455">
        <ele>177</ele>
        <time>2012-01-06T18:11:28Z</time>
      </trkpt>
      <trkpt lat="45.77823" lon="4.84554">
        <ele>177</ele>
        <time>2012-01-06T18:11:30Z</time>
      </trkpt>
      <trkpt lat="45.77835" lon="4.84565">
        <ele>177</ele>
        <time>2012-01-06T18:11:35Z</time>
      </trkpt>
      <trkpt lat="45.77849" lon="4.84573">
        <ele>177</ele>
        <time>2012-01-06T18:11:40Z</time>
      </trkpt>
      <trkpt lat="45.77852" lon="4.84576">
        <ele>176</ele>
        <time>2012-01-06T18:11:41Z</time>
      </trkpt>
      <trkpt lat="45.77866" lon="4.84586">
        <ele>176</ele>
        <time>2012-01-06T18:11:47Z</time>
      </trkpt>
      <trkpt lat="45.77869" lon="4.84588">
        <ele>176</ele>
        <time>2012-01-06T18:11:48Z</time>
      </trkpt>
      <trkpt lat="45.77871" lon="4.8459">
        <ele>176</ele>
        <time>2012-01-06T18:11:49Z</time>
      </trkpt>
      <trkpt lat="45.77876" lon="4.84593">
        <ele>176</ele>
        <time>2012-01-06T18:11:51Z</time>
      </trkpt>
      <trkpt lat="45.77886" lon="4.84599">
        <ele>176</ele>
        <time>2012-01-06T18:11:55Z</time>
      </trkpt>
      <trkpt lat="45.77887" lon="4.84601">
        <ele>176</ele>
        <time>2012-01-06T18:11:56Z</time>
      </trkpt>
      <trkpt lat="45.77898" lon="4.8461">
        <ele>176</ele>
        <time>2012-01-06T18:12:01Z</time>
      </trkpt>
      <trkpt lat="45.77902" lon="4.84613">
        <ele>176</ele>
        <time>2012-01-06T18:12:03Z</time>
      </trkpt>
      <trkpt lat="45.77908" lon="4.84617">
        <ele>176</ele>
        <time>2012-01-06T18:12:06Z</time>
      </trkpt>
      <trkpt lat="45.77918" lon="4.84625">
        <ele>173</ele>
        <time>2012-01-06T18:12:10Z</time>
      </trkpt>
      <trkpt lat="45.77921" lon="4.84627">
        <ele>173</ele>
        <time>2012-01-06T18:12:12Z</time>
      </trkpt>
      <trkpt lat="45.77926" lon="4.8463">
        <ele>173</ele>
        <time>2012-01-06T18:12:14Z</time>
      </trkpt>
      <trkpt lat="45.7793" lon="4.84635">
        <ele>173</ele>
        <time>2012-01-06T18:12:16Z</time>
      </trkpt>
      <trkpt lat="45.77936" lon="4.84641">
        <ele>173</ele>
        <time>2012-01-06T18:12:18Z</time>
      </trkpt>
      <trkpt lat="45.7794" lon="4.84645">
        <ele>172</ele>
        <time>2012-01-06T18:12:20Z</time>
      </trkpt>
      <trkpt lat="45.77944" lon="4.84649">
        <ele>172</ele>
        <time>2012-01-06T18:12:22Z</time>
      </trkpt>
      <trkpt lat="45.77948" lon="4.84652">
        <ele>172</ele>
        <time>2012-01-06T18:12:24Z</time>
      </trkpt>
      <trkpt lat="45.77952" lon="4.84655">
        <ele>172</ele>
        <time>2012-01-06T18:12:26Z</time>
      </trkpt>
      <trkpt lat="45.77954" lon="4.84656">
        <ele>172</ele>
        <time>2012-01-06T18:12:27Z</time>
      </trkpt>
      <trkpt lat="45.77964" lon="4.84667">
        <ele>173</ele>
        <time>2012-01-06T18:12:32Z</time>
      </trkpt>
      <trkpt lat="45.77967" lon="4.84669">
        <ele>173</ele>
        <time>2012-01-06T18:12:33Z</time>
      </trkpt>
      <trkpt lat="45.77974" lon="4.84676">
        <ele>173</ele>
        <time>2012-01-06T18:12:37Z</time>
      </trkpt>
      <trkpt lat="45.77975" lon="4.84678">
        <ele>173</ele>
        <time>2012-01-06T18:12:38Z</time>
      </trkpt>
      <trkpt lat="45.77981" lon="4.84684">
        <ele>173</ele>
        <time>2012-01-06T18:12:41Z</time>
      </trkpt>
      <trkpt lat="45.77982" lon="4.84686">
        <ele>173</ele>
        <time>2012-01-06T18:12:42Z</time>
      </trkpt>
      <trkpt lat="45.7799" lon="4.84695">
        <ele>173</ele>
        <time>2012-01-06T18:12:46Z</time>
      </trkpt>
      <trkpt lat="45.77998" lon="4.84703">
        <ele>173</ele>
        <time>2012-01-06T18:12:50Z</time>
      </trkpt>
      <trkpt lat="45.78001" lon="4.84705">
        <ele>173</ele>
        <time>2012-01-06T18:12:51Z</time>
      </trkpt>
      <trkpt lat="45.78014" lon="4.84716">
        <ele>173</ele>
        <time>2012-01-06T18:12:57Z</time>
      </trkpt>
      <trkpt lat="45.78015" lon="4.84718">
        <ele>173</ele>
        <time>2012-01-06T18:12:58Z</time>
      </trkpt>
      <trkpt lat="45.78021" lon="4.84725">
        <ele>173</ele>
        <time>2012-01-06T18:13:01Z</time>
      </trkpt>
      <trkpt lat="45.78027" lon="4.84732">
        <ele>173</ele>
        <time>2012-01-06T18:13:04Z</time>
      </trkpt>
      <trkpt lat="45.78029" lon="4.84734">
        <ele>173</ele>
        <time>2012-01-06T18:13:05Z</time>
      </trkpt>
      <trkpt lat="45.78031" lon="4.84736">
        <ele>173</ele>
        <time>2012-01-06T18:13:06Z</time>
      </trkpt>
      <trkpt lat="45.78043" lon="4.84747">
        <ele>173</ele>
        <time>2012-01-06T18:13:11Z</time>
      </trkpt>
      <trkpt lat="45.78045" lon="4.8475">
        <ele>173</ele>
        <time>2012-01-06T18:13:12Z</time>
      </trkpt>
      <trkpt lat="45.78054" lon="4.8476">
        <ele>174</ele>
        <time>2012-01-06T18:13:16Z</time>
      </trkpt>
      <trkpt lat="45.7806" lon="4.84767">
        <ele>174</ele>
        <time>2012-01-06T18:13:19Z</time>
      </trkpt>
      <trkpt lat="45.78064" lon="4.84771">
        <ele>174</ele>
        <time>2012-01-06T18:13:21Z</time>
      </trkpt>
      <trkpt lat="45.78065" lon="4.84773">
        <ele>173</ele>
        <time>2012-01-06T18:13:22Z</time>
      </trkpt>
      <trkpt lat="45.7807" lon="4.8478">
        <ele>173</ele>
        <time>2012-01-06T18:13:25Z</time>
      </trkpt>
      <trkpt lat="45.78075" lon="4.84786">
        <ele>173</ele>
        <time>2012-01-06T18:13:27Z</time>
      </trkpt>
      <trkpt lat="45.78078" lon="4.8479">
        <ele>173</ele>
        <time>2012-01-06T18:13:29Z</time>
      </trkpt>
      <trkpt lat="45.7809" lon="4.84802">
        <ele>173</ele>
        <time>2012-01-06T18:13:35Z</time>
      </trkpt>
      <trkpt lat="45.78099" lon="4.84811">
        <ele>173</ele>
        <time>2012-01-06T18:13:39Z</time>
      </trkpt>
      <trkpt lat="45.78104" lon="4.84818">
        <ele>173</ele>
        <time>2012-01-06T18:13:42Z</time>
      </trkpt>
      <trkpt lat="45.78106" lon="4.84824">
        <ele>173</ele>
        <time>2012-01-06T18:13:44Z</time>
      </trkpt>
      <trkpt lat="45.78114" lon="4.84835">
        <ele>174</ele>
        <time>2012-01-06T18:13:48Z</time>
      </trkpt>
      <trkpt lat="45.78116" lon="4.84837">
        <ele>174</ele>
        <time>2012-01-06T18:13:49Z</time>
      </trkpt>
      <trkpt lat="45.78123" lon="4.84847">
        <ele>174</ele>
        <time>2012-01-06T18:13:53Z</time>
      </trkpt>
      <trkpt lat="45.78131" lon="4.84857">
        <ele>174</ele>
        <time>2012-01-06T18:13:57Z</time>
      </trkpt>
      <trkpt lat="45.78133" lon="4.8486">
        <ele>174</ele>
        <time>2012-01-06T18:13:58Z</time>
      </trkpt>
      <trkpt lat="45.78139" lon="4.84877">
        <ele>174</ele>
        <time>2012-01-06T18:14:03Z</time>
      </trkpt>
      <trkpt lat="45.78139" lon="4.84879">
        <ele>174</ele>
        <time>2012-01-06T18:14:04Z</time>
      </trkpt>
      <trkpt lat="45.78139" lon="4.84881">
        <ele>175</ele>
        <time>2012-01-06T18:14:05Z</time>
      </trkpt>
      <trkpt lat="45.78139" lon="4.84887">
        <ele>175</ele>
        <time>2012-01-06T18:14:07Z</time>
      </trkpt>
      <trkpt lat="45.78143" lon="4.84906">
        <ele>175</ele>
        <time>2012-01-06T18:14:12Z</time>
      </trkpt>
      <trkpt lat="45.78144" lon="4.84908">
        <ele>175</ele>
        <time>2012-01-06T18:14:13Z</time>
      </trkpt>
      <trkpt lat="45.78152" lon="4.84912">
        <ele>175</ele>
        <time>2012-01-06T18:14:17Z</time>
      </trkpt>
      <trkpt lat="45.78161" lon="4.84915">
        <ele>175</ele>
        <time>2012-01-06T18:14:21Z</time>
      </trkpt>
      <trkpt lat="45.78165" lon="4.84917">
        <ele>175</ele>
        <time>2012-01-06T18:14:22Z</time>
      </trkpt>
      <trkpt lat="45.78175" lon="4.84923">
        <ele>174</ele>
        <time>2012-01-06T18:14:27Z</time>
      </trkpt>
      <trkpt lat="45.7818" lon="4.84929">
        <ele>173</ele>
        <time>2012-01-06T18:14:30Z</time>
      </trkpt>
      <trkpt lat="45.78184" lon="4.84938">
        <ele>173</ele>
        <time>2012-01-06T18:14:33Z</time>
      </trkpt>
      <trkpt lat="45.78192" lon="4.84948">
        <ele>172</ele>
        <time>2012-01-06T18:14:37Z</time>
      </trkpt>
      <trkpt lat="45.78194" lon="4.8495">
        <ele>172</ele>
        <time>2012-01-06T18:14:38Z</time>
      </trkpt>
      <trkpt lat="45.78201" lon="4.84962">
        <ele>172</ele>
        <time>2012-01-06T18:14:42Z</time>
      </trkpt>
      <trkpt lat="45.78204" lon="4.84968">
        <ele>172</ele>
        <time>2012-01-06T18:14:44Z</time>
      </trkpt>
      <trkpt lat="45.78208" lon="4.84973">
        <ele>172</ele>
        <time>2012-01-06T18:14:46Z</time>
      </trkpt>
      <trkpt lat="45.7821" lon="4.84975">
        <ele>172</ele>
        <time>2012-01-06T18:14:47Z</time>
      </trkpt>
      <trkpt lat="45.78217" lon="4.84985">
        <ele>172</ele>
        <time>2012-01-06T18:14:51Z</time>
      </trkpt>
      <trkpt lat="45.78218" lon="4.84988">
        <ele>172</ele>
        <time>2012-01-06T18:14:52Z</time>
      </trkpt>
      <trkpt lat="45.78225" lon="4.85">
        <ele>171</ele>
        <time>2012-01-06T18:14:56Z</time>
      </trkpt>
      <trkpt lat="45.78228" lon="4.85007">
        <ele>171</ele>
        <time>2012-01-06T18:14:58Z</time>
      </trkpt>
      <trkpt lat="45.78232" lon="4.85016">
        <ele>171</ele>
        <time>2012-01-06T18:15:01Z</time>
      </trkpt>
      <trkpt lat="45.78235" lon="4.85019">
        <ele>171</ele>
        <time>2012-01-06T18:15:03Z</time>
      </trkpt>
      <trkpt lat="45.78237" lon="4.85019">
        <ele>171</ele>
        <time>2012-01-06T18:15:05Z</time>
      </trkpt>
      <trkpt lat="45.78242" lon="4.85016">
        <ele>171</ele>
        <time>2012-01-06T18:15:11Z</time>
      </trkpt>
      <trkpt lat="45.78243" lon="4.85015">
        <ele>171</ele>
        <time>2012-01-06T18:15:12Z</time>
      </trkpt>
      <trkpt lat="45.78245" lon="4.85015">
        <ele>171</ele>
        <time>2012-01-06T18:15:19Z</time>
      </trkpt>
      <trkpt lat="45.78249" lon="4.85009">
        <ele>172</ele>
        <time>2012-01-06T18:15:24Z</time>
      </trkpt>
      <trkpt lat="45.78253" lon="4.85002">
        <ele>172</ele>
        <time>2012-01-06T18:15:28Z</time>
      </trkpt>
      <trkpt lat="45.78255" lon="4.84999">
        <ele>172</ele>
        <time>2012-01-06T18:15:29Z</time>
      </trkpt>
      <trkpt lat="45.78257" lon="4.8499">
        <ele>172</ele>
        <time>2012-01-06T18:15:32Z</time>
      </trkpt>
      <trkpt lat="45.78256" lon="4.84983">
        <ele>172</ele>
        <time>2012-01-06T18:15:34Z</time>
      </trkpt>
      <trkpt lat="45.78252" lon="4.84974">
        <ele>171</ele>
        <time>2012-01-06T18:15:37Z</time>
      </trkpt>
      <trkpt lat="45.78249" lon="4.84968">
        <ele>172</ele>
        <time>2012-01-06T18:15:39Z</time>
      </trkpt>
      <trkpt lat="45.7824" lon="4.84952">
        <ele>172</ele>
        <time>2012-01-06T18:15:45Z</time>
      </trkpt>
      <trkpt lat="45.78239" lon="4.8495">
        <ele>172</ele>
        <time>2012-01-06T18:15:46Z</time>
      </trkpt>
      <trkpt lat="45.78228" lon="4.84932">
        <ele>172</ele>
        <time>2012-01-06T18:15:53Z</time>
      </trkpt>
      <trkpt lat="45.78221" lon="4.84922">
        <ele>172</ele>
        <time>2012-01-06T18:15:58Z</time>
      </trkpt>
      <trkpt lat="45.78216" lon="4.84914">
        <ele>173</ele>
        <time>2012-01-06T18:16:01Z</time>
      </trkpt>
      <trkpt lat="45.78211" lon="4.84904">
        <ele>173</ele>
        <time>2012-01-06T18:16:04Z</time>
      </trkpt>
      <trkpt lat="45.78202" lon="4.84892">
        <ele>173</ele>
        <time>2012-01-06T18:16:09Z</time>
      </trkpt>
      <trkpt lat="45.782" lon="4.8489">
        <ele>173</ele>
        <time>2012-01-06T18:16:10Z</time>
      </trkpt>
      <trkpt lat="45.78191" lon="4.84875">
        <ele>173</ele>
        <time>2012-01-06T18:16:15Z</time>
      </trkpt>
      <trkpt lat="45.78189" lon="4.84871">
        <ele>173</ele>
        <time>2012-01-06T18:16:16Z</time>
      </trkpt>
      <trkpt lat="45.78182" lon="4.84856">
        <ele>173</ele>
        <time>2012-01-06T18:16:20Z</time>
      </trkpt>
      <trkpt lat="45.78178" lon="4.84849">
        <ele>173</ele>
        <time>2012-01-06T18:16:23Z</time>
      </trkpt>
      <trkpt lat="45.78171" lon="4.8484">
        <ele>173</ele>
        <time>2012-01-06T18:16:27Z</time>
      </trkpt>
      <trkpt lat="45.78163" lon="4.84832">
        <ele>173</ele>
        <time>2012-01-06T18:16:32Z</time>
      </trkpt>
      <trkpt lat="45.78162" lon="4.8483">
        <ele>173</ele>
        <time>2012-01-06T18:16:33Z</time>
      </trkpt>
      <trkpt lat="45.78151" lon="4.84816">
        <ele>173</ele>
        <time>2012-01-06T18:16:39Z</time>
      </trkpt>
      <trkpt lat="45.78149" lon="4.84814">
        <ele>173</ele>
        <time>2012-01-06T18:16:40Z</time>
      </trkpt>
      <trkpt lat="45.78148" lon="4.84811">
        <ele>173</ele>
        <time>2012-01-06T18:16:41Z</time>
      </trkpt>
      <trkpt lat="45.78142" lon="4.84802">
        <ele>173</ele>
        <time>2012-01-06T18:16:44Z</time>
      </trkpt>
      <trkpt lat="45.78134" lon="4.84794">
        <ele>173</ele>
        <time>2012-01-06T18:16:48Z</time>
      </trkpt>
      <trkpt lat="45.7813" lon="4.84788">
        <ele>174</ele>
        <time>2012-01-06T18:16:50Z</time>
      </trkpt>
      <trkpt lat="45.78121" lon="4.84775">
        <ele>174</ele>
        <time>2012-01-06T18:16:55Z</time>
      </trkpt>
      <trkpt lat="45.7812" lon="4.84772">
        <ele>174</ele>
        <time>2012-01-06T18:16:56Z</time>
      </trkpt>
      <trkpt lat="45.78111" lon="4.84751">
        <ele>174</ele>
        <time>2012-01-06T18:17:02Z</time>
      </trkpt>
      <trkpt lat="45.78117" lon="4.84736">
        <ele>173</ele>
        <time>2012-01-06T18:17:08Z</time>
      </trkpt>
      <trkpt lat="45.78121" lon="4.84729">
        <ele>173</ele>
        <time>2012-01-06T18:17:11Z</time>
      </trkpt>
      <trkpt lat="45.78124" lon="4.84725">
        <ele>173</ele>
        <time>2012-01-06T18:17:13Z</time>
      </trkpt>
      <trkpt lat="45.78132" lon="4.8471">
        <ele>172</ele>
        <time>2012-01-06T18:17:19Z</time>
      </trkpt>
      <trkpt lat="45.78133" lon="4.84707">
        <ele>172</ele>
        <time>2012-01-06T18:17:20Z</time>
      </trkpt>
      <trkpt lat="45.7814" lon="4.84692">
        <ele>172</ele>
        <time>2012-01-06T18:17:26Z</time>
      </trkpt>
      <trkpt lat="45.78141" lon="4.84683">
        <ele>171</ele>
        <time>2012-01-06T18:17:30Z</time>
      </trkpt>
      <trkpt lat="45.78141" lon="4.84681">
        <ele>171</ele>
        <time>2012-01-06T18:17:31Z</time>
      </trkpt>
      <trkpt lat="45.7814" lon="4.84672">
        <ele>171</ele>
        <time>2012-01-06T18:17:54Z</time>
      </trkpt>
      <trkpt lat="45.78142" lon="4.84667">
        <ele>171</ele>
        <time>2012-01-06T18:17:56Z</time>
      </trkpt>
      <trkpt lat="45.78143" lon="4.84663">
        <ele>169</ele>
        <time>2012-01-06T18:18:01Z</time>
      </trkpt>
      <trkpt lat="45.78147" lon="4.84655">
        <ele>169</ele>
        <time>2012-01-06T18:18:13Z</time>
      </trkpt>
      <trkpt lat="45.78149" lon="4.84649">
        <ele>168</ele>
        <time>2012-01-06T18:18:15Z</time>
      </trkpt>
      <trkpt lat="45.78151" lon="4.84644">
        <ele>168</ele>
        <time>2012-01-06T18:18:17Z</time>
      </trkpt>
      <trkpt lat="45.78151" lon="4.84641">
        <ele>168</ele>
        <time>2012-01-06T18:18:18Z</time>
      </trkpt>
      <trkpt lat="45.78145" lon="4.84634">
        <ele>168</ele>
        <time>2012-01-06T18:18:21Z</time>
      </trkpt>
      <trkpt lat="45.78143" lon="4.84632">
        <ele>168</ele>
        <time>2012-01-06T18:18:22Z</time>
      </trkpt>
      <trkpt lat="45.78141" lon="4.84629">
        <ele>168</ele>
        <time>2012-01-06T18:18:23Z</time>
      </trkpt>
      <trkpt lat="45.78133" lon="4.8462">
        <ele>168</ele>
        <time>2012-01-06T18:18:27Z</time>
      </trkpt>
      <trkpt lat="45.78125" lon="4.84612">
        <ele>168</ele>
        <time>2012-01-06T18:18:31Z</time>
      </trkpt>
      <trkpt lat="45.7812" lon="4.84609">
        <ele>168</ele>
        <time>2012-01-06T18:18:33Z</time>
      </trkpt>
      <trkpt lat="45.78118" lon="4.84608">
        <ele>168</ele>
        <time>2012-01-06T18:18:34Z</time>
      </trkpt>
      <trkpt lat="45.78111" lon="4.84603">
        <ele>167</ele>
        <time>2012-01-06T18:18:37Z</time>
      </trkpt>
      <trkpt lat="45.78108" lon="4.846">
        <ele>167</ele>
        <time>2012-01-06T18:18:39Z</time>
      </trkpt>
      <trkpt lat="45.78104" lon="4.84595">
        <ele>167</ele>
        <time>2012-01-06T18:18:41Z</time>
      </trkpt>
      <trkpt lat="45.78098" lon="4.84589">
        <ele>167</ele>
        <time>2012-01-06T18:18:44Z</time>
      </trkpt>
      <trkpt lat="45.78092" lon="4.84584">
        <ele>167</ele>
        <time>2012-01-06T18:18:47Z</time>
      </trkpt>
      <trkpt lat="45.7809" lon="4.84582">
        <ele>166</ele>
        <time>2012-01-06T18:18:48Z</time>
      </trkpt>
      <trkpt lat="45.78075" lon="4.84568">
        <ele>166</ele>
        <time>2012-01-06T18:18:55Z</time>
      </trkpt>
      <trkpt lat="45.78062" lon="4.84553">
        <ele>166</ele>
        <time>2012-01-06T18:19:01Z</time>
      </trkpt>
      <trkpt lat="45.78061" lon="4.84551">
        <ele>166</ele>
        <time>2012-01-06T18:19:02Z</time>
      </trkpt>
      <trkpt lat="45.78053" lon="4.84543">
        <ele>166</ele>
        <time>2012-01-06T18:19:06Z</time>
      </trkpt>
      <trkpt lat="45.78045" lon="4.84535">
        <ele>166</ele>
        <time>2012-01-06T18:19:10Z</time>
      </trkpt>
      <trkpt lat="45.78039" lon="4.84528">
        <ele>166</ele>
        <time>2012-01-06T18:19:13Z</time>
      </trkpt>
      <trkpt lat="45.78031" lon="4.8452">
        <ele>166</ele>
        <time>2012-01-06T18:19:17Z</time>
      </trkpt>
      <trkpt lat="45.78028" lon="4.84518">
        <ele>166</ele>
        <time>2012-01-06T18:19:18Z</time>
      </trkpt>
      <trkpt lat="45.78015" lon="4.84505">
        <ele>165</ele>
        <time>2012-01-06T18:19:25Z</time>
      </trkpt>
      <trkpt lat="45.78005" lon="4.84495">
        <ele>164</ele>
        <time>2012-01-06T18:19:30Z</time>
      </trkpt>
      <trkpt lat="45.77998" lon="4.84489">
        <ele>165</ele>
        <time>2012-01-06T18:19:33Z</time>
      </trkpt>
      <trkpt lat="45.77989" lon="4.84481">
        <ele>166</ele>
        <time>2012-01-06T18:19:37Z</time>
      </trkpt>
      <trkpt lat="45.77983" lon="4.84476">
        <ele>166</ele>
        <time>2012-01-06T18:19:40Z</time>
      </trkpt>
      <trkpt lat="45.77976" lon="4.8447">
        <ele>166</ele>
        <time>2012-01-06T18:19:43Z</time>
      </trkpt>
      <trkpt lat="45.77965" lon="4.84462">
        <ele>166</ele>
        <time>2012-01-06T18:19:48Z</time>
      </trkpt>
      <trkpt lat="45.77956" lon="4.84453">
        <ele>167</ele>
        <time>2012-01-06T18:19:53Z</time>
      </trkpt>
      <trkpt lat="45.77951" lon="4.84452">
        <ele>167</ele>
        <time>2012-01-06T18:19:55Z</time>
      </trkpt>
      <trkpt lat="45.77949" lon="4.84451">
        <ele>167</ele>
        <time>2012-01-06T18:19:56Z</time>
      </trkpt>
      <trkpt lat="45.77944" lon="4.84447">
        <ele>167</ele>
        <time>2012-01-06T18:19:58Z</time>
      </trkpt>
      <trkpt lat="45.77942" lon="4.84445">
        <ele>167</ele>
        <time>2012-01-06T18:19:59Z</time>
      </trkpt>
      <trkpt lat="45.77934" lon="4.84437">
        <ele>167</ele>
        <time>2012-01-06T18:20:03Z</time>
      </trkpt>
      <trkpt lat="45.77917" lon="4.84428">
        <ele>167</ele>
        <time>2012-01-06T18:20:10Z</time>
      </trkpt>
      <trkpt lat="45.77915" lon="4.84427">
        <ele>168</ele>
        <time>2012-01-06T18:20:11Z</time>
      </trkpt>
      <trkpt lat="45.77903" lon="4.84423">
        <ele>168</ele>
        <time>2012-01-06T18:20:15Z</time>
      </trkpt>
      <trkpt lat="45.77896" lon="4.8442">
        <ele>168</ele>
        <time>2012-01-06T18:20:18Z</time>
      </trkpt>
      <trkpt lat="45.77891" lon="4.84417">
        <ele>169</ele>
        <time>2012-01-06T18:20:20Z</time>
      </trkpt>
      <trkpt lat="45.77877" lon="4.84407">
        <ele>167</ele>
        <time>2012-01-06T18:20:26Z</time>
      </trkpt>
      <trkpt lat="45.77865" lon="4.844">
        <ele>167</ele>
        <time>2012-01-06T18:20:31Z</time>
      </trkpt>
      <trkpt lat="45.77859" lon="4.84399">
        <ele>167</ele>
        <time>2012-01-06T18:20:33Z</time>
      </trkpt>
      <trkpt lat="45.77852" lon="4.84394">
        <ele>167</ele>
        <time>2012-01-06T18:20:36Z</time>
      </trkpt>
      <trkpt lat="45.77841" lon="4.84386">
        <ele>167</ele>
        <time>2012-01-06T18:20:41Z</time>
      </trkpt>
      <trkpt lat="45.77833" lon="4.84383">
        <ele>167</ele>
        <time>2012-01-06T18:20:45Z</time>
      </trkpt>
      <trkpt lat="45.77828" lon="4.8438">
        <ele>167</ele>
        <time>2012-01-06T18:20:48Z</time>
      </trkpt>
      <trkpt lat="45.77825" lon="4.84381">
        <ele>167</ele>
        <time>2012-01-06T18:20:50Z</time>
      </trkpt>
      <trkpt lat="45.77823" lon="4.84382">
        <ele>167</ele>
        <time>2012-01-06T18:20:51Z</time>
      </trkpt>
      <trkpt lat="45.77821" lon="4.84382">
        <ele>167</ele>
        <time>2012-01-06T18:20:52Z</time>
      </trkpt>
      <trkpt lat="45.77816" lon="4.84382">
        <ele>167</ele>
        <time>2012-01-06T18:20:54Z</time>
      </trkpt>
      <trkpt lat="45.77814" lon="4.84381">
        <ele>167</ele>
        <time>2012-01-06T18:20:55Z</time>
      </trkpt>
      <trkpt lat="45.77805" lon="4.84376">
        <ele>167</ele>
        <time>2012-01-06T18:20:58Z</time>
      </trkpt>
      <trkpt lat="45.77797" lon="4.84374">
        <ele>167</ele>
        <time>2012-01-06T18:21:01Z</time>
      </trkpt>
      <trkpt lat="45.77795" lon="4.84373">
        <ele>167</ele>
        <time>2012-01-06T18:21:02Z</time>
      </trkpt>
      <trkpt lat="45.77786" lon="4.84369">
        <ele>167</ele>
        <time>2012-01-06T18:21:05Z</time>
      </trkpt>
      <trkpt lat="45.77772" lon="4.84367">
        <ele>167</ele>
        <time>2012-01-06T18:21:09Z</time>
      </trkpt>
      <trkpt lat="45.77767" lon="4.8437">
        <ele>167</ele>
        <time>2012-01-06T18:21:11Z</time>
      </trkpt>
      <trkpt lat="45.77765" lon="4.84373">
        <ele>167</ele>
        <time>2012-01-06T18:21:13Z</time>
      </trkpt>
      <trkpt lat="45.77762" lon="4.8438">
        <ele>167</ele>
        <time>2012-01-06T18:21:16Z</time>
      </trkpt>
      <trkpt lat="45.7776" lon="4.84385">
        <ele>168</ele>
        <time>2012-01-06T18:21:18Z</time>
      </trkpt>
      <trkpt lat="45.77758" lon="4.84392">
        <ele>168</ele>
        <time>2012-01-06T18:21:20Z</time>
      </trkpt>
      <trkpt lat="45.77756" lon="4.84395">
        <ele>168</ele>
        <time>2012-01-06T18:21:22Z</time>
      </trkpt>
      <trkpt lat="45.77749" lon="4.84393">
        <ele>169</ele>
        <time>2012-01-06T18:21:25Z</time>
      </trkpt>
      <trkpt lat="45.77747" lon="4.84392">
        <ele>169</ele>
        <time>2012-01-06T18:21:26Z</time>
      </trkpt>
      <trkpt lat="45.77742" lon="4.84391">
        <ele>169</ele>
        <time>2012-01-06T18:21:28Z</time>
      </trkpt>
      <trkpt lat="45.77733" lon="4.84387">
        <ele>168</ele>
        <time>2012-01-06T18:21:32Z</time>
      </trkpt>
      <trkpt lat="45.77723" lon="4.84383">
        <ele>168</ele>
        <time>2012-01-06T18:21:36Z</time>
      </trkpt>
      <trkpt lat="45.77714" lon="4.84379">
        <ele>169</ele>
        <time>2012-01-06T18:21:39Z</time>
      </trkpt>
      <trkpt lat="45.77705" lon="4.84375">
        <ele>169</ele>
        <time>2012-01-06T18:21:43Z</time>
      </trkpt>
      <trkpt lat="45.777" lon="4.84373">
        <ele>169</ele>
        <time>2012-01-06T18:21:45Z</time>
      </trkpt>
      <trkpt lat="45.77687" lon="4.84368">
        <ele>169</ele>
        <time>2012-01-06T18:21:51Z</time>
      </trkpt>
      <trkpt lat="45.77685" lon="4.84367">
        <ele>169</ele>
        <time>2012-01-06T18:21:52Z</time>
      </trkpt>
      <trkpt lat="45.7768" lon="4.84369">
        <ele>169</ele>
        <time>2012-01-06T18:21:56Z</time>
      </trkpt>
      <trkpt lat="45.7768" lon="4.84371">
        <ele>169</ele>
        <time>2012-01-06T18:22:00Z</time>
      </trkpt>
      <trkpt lat="45.77681" lon="4.84377">
        <ele>169</ele>
        <time>2012-01-06T18:22:11Z</time>
      </trkpt>
      <trkpt lat="45.77682" lon="4.84381">
        <ele>169</ele>
        <time>2012-01-06T18:22:13Z</time>
      </trkpt>
      <trkpt lat="45.77683" lon="4.84385">
        <ele>169</ele>
        <time>2012-01-06T18:22:15Z</time>
      </trkpt>
      <trkpt lat="45.77684" lon="4.84387">
        <ele>169</ele>
        <time>2012-01-06T18:22:16Z</time>
      </trkpt>
      <trkpt lat="45.77689" lon="4.8439">
        <ele>169</ele>
        <time>2012-01-06T18:22:18Z</time>
      </trkpt>
      <trkpt lat="45.77692" lon="4.84392">
        <ele>169</ele>
        <time>2012-01-06T18:22:20Z</time>
      </trkpt>
      <trkpt lat="45.77699" lon="4.84395">
        <ele>169</ele>
        <time>2012-01-06T18:22:24Z</time>
      </trkpt>
      <trkpt lat="45.77703" lon="4.84396">
        <ele>169</ele>
        <time>2012-01-06T18:22:26Z</time>
      </trkpt>
      <trkpt lat="45.77711" lon="4.844">
        <ele>169</ele>
        <time>2012-01-06T18:22:30Z</time>
      </trkpt>
      <trkpt lat="45.7772" lon="4.84405">
        <ele>169</ele>
        <time>2012-01-06T18:22:35Z</time>
      </trkpt>
      <trkpt lat="45.77722" lon="4.84406">
        <ele>169</ele>
        <time>2012-01-06T18:22:36Z</time>
      </trkpt>
      <trkpt lat="45.77729" lon="4.84413">
        <ele>169</ele>
        <time>2012-01-06T18:22:40Z</time>
      </trkpt>
      <trkpt lat="45.77738" lon="4.84419">
        <ele>170</ele>
        <time>2012-01-06T18:22:44Z</time>
      </trkpt>
      <trkpt lat="45.77741" lon="4.8442">
        <ele>170</ele>
        <time>2012-01-06T18:22:45Z</time>
      </trkpt>
      <trkpt lat="45.77753" lon="4.84427">
        <ele>170</ele>
        <time>2012-01-06T18:22:51Z</time>
      </trkpt>
      <trkpt lat="45.77755" lon="4.84429">
        <ele>170</ele>
        <time>2012-01-06T18:22:52Z</time>
      </trkpt>
      <trkpt lat="45.77766" lon="4.84433">
        <ele>171</ele>
        <time>2012-01-06T18:22:57Z</time>
      </trkpt>
      <trkpt lat="45.77774" lon="4.84434">
        <ele>171</ele>
        <time>2012-01-06T18:23:00Z</time>
      </trkpt>
      <trkpt lat="45.77779" lon="4.84432">
        <ele>171</ele>
        <time>2012-01-06T18:23:02Z</time>
      </trkpt>
      <trkpt lat="45.7779" lon="4.84422">
        <ele>170</ele>
        <time>2012-01-06T18:23:07Z</time>
      </trkpt>
      <trkpt lat="45.77798" lon="4.84404">
        <ele>167</ele>
        <time>2012-01-06T18:23:13Z</time>
      </trkpt>
      <trkpt lat="45.77801" lon="4.84398">
        <ele>167</ele>
        <time>2012-01-06T18:23:15Z</time>
      </trkpt>
      <trkpt lat="45.77805" lon="4.84387">
        <ele>167</ele>
        <time>2012-01-06T18:23:19Z</time>
      </trkpt>
      <trkpt lat="45.77811" lon="4.84373">
        <ele>167</ele>
        <time>2012-01-06T18:23:24Z</time>
      </trkpt>
      <trkpt lat="45.77819" lon="4.84352">
        <ele>167</ele>
        <time>2012-01-06T18:23:31Z</time>
      </trkpt>
      <trkpt lat="45.7782" lon="4.84349">
        <ele>167</ele>
        <time>2012-01-06T18:23:32Z</time>
      </trkpt>
      <trkpt lat="45.77826" lon="4.84333">
        <ele>167</ele>
        <time>2012-01-06T18:23:37Z</time>
      </trkpt>
      <trkpt lat="45.77829" lon="4.84324">
        <ele>167</ele>
        <time>2012-01-06T18:23:40Z</time>
      </trkpt>
      <trkpt lat="45.77833" lon="4.84314">
        <ele>167</ele>
        <time>2012-01-06T18:23:43Z</time>
      </trkpt>
      <trkpt lat="45.77838" lon="4.84298">
        <ele>166</ele>
        <time>2012-01-06T18:23:48Z</time>
      </trkpt>
      <trkpt lat="45.77841" lon="4.84292">
        <ele>166</ele>
        <time>2012-01-06T18:23:50Z</time>
      </trkpt>
      <trkpt lat="45.77848" lon="4.84273">
        <ele>166</ele>
        <time>2012-01-06T18:23:56Z</time>
      </trkpt>
      <trkpt lat="45.77849" lon="4.8427">
        <ele>166</ele>
        <time>2012-01-06T18:23:57Z</time>
      </trkpt>
      <trkpt lat="45.77857" lon="4.84252">
        <ele>166</ele>
        <time>2012-01-06T18:24:03Z</time>
      </trkpt>
      <trkpt lat="45.77859" lon="4.84249">
        <ele>167</ele>
        <time>2012-01-06T18:24:04Z</time>
      </trkpt>
      <trkpt lat="45.77864" lon="4.84232">
        <ele>167</ele>
        <time>2012-01-06T18:24:09Z</time>
      </trkpt>
      <trkpt lat="45.77867" lon="4.84223">
        <ele>167</ele>
        <time>2012-01-06T18:24:12Z</time>
      </trkpt>
      <trkpt lat="45.77871" lon="4.8421">
        <ele>167</ele>
        <time>2012-01-06T18:24:16Z</time>
      </trkpt>
      <trkpt lat="45.77875" lon="4.84197">
        <ele>168</ele>
        <time>2012-01-06T18:24:20Z</time>
      </trkpt>
      <trkpt lat="45.77876" lon="4.84194">
        <ele>168</ele>
        <time>2012-01-06T18:24:21Z</time>
      </trkpt>
      <trkpt lat="45.77883" lon="4.84174">
        <ele>168</ele>
        <time>2012-01-06T18:24:27Z</time>
      </trkpt>
      <trkpt lat="45.7789" lon="4.84155">
        <ele>173</ele>
        <time>2012-01-06T18:24:33Z</time>
      </trkpt>
      <trkpt lat="45.77892" lon="4.84149">
        <ele>173</ele>
        <time>2012-01-06T18:24:35Z</time>
      </trkpt>
      <trkpt lat="45.77894" lon="4.84142">
        <ele>174</ele>
        <time>2012-01-06T18:24:38Z</time>
      </trkpt>
      <trkpt lat="45.77894" lon="4.84141">
        <ele>174</ele>
        <time>2012-01-06T18:24:39Z</time>
      </trkpt>
      <trkpt lat="45.77893" lon="4.84139">
        <ele>174</ele>
        <time>2012-01-06T18:24:42Z</time>
      </trkpt>
      <trkpt lat="45.77892" lon="4.84138">
        <ele>174</ele>
        <time>2012-01-06T18:24:53Z</time>
      </trkpt>
      <trkpt lat="45.77894" lon="4.84132">
        <ele>174</ele>
        <time>2012-01-06T18:25:01Z</time>
      </trkpt>
      <trkpt lat="45.77897" lon="4.84127">
        <ele>175</ele>
        <time>2012-01-06T18:25:03Z</time>
      </trkpt>
      <trkpt lat="45.77898" lon="4.84125">
        <ele>175</ele>
        <time>2012-01-06T18:25:04Z</time>
      </trkpt>
      <trkpt lat="45.77898" lon="4.84119">
        <ele>175</ele>
        <time>2012-01-06T18:25:06Z</time>
      </trkpt>
      <trkpt lat="45.77896" lon="4.8411">
        <ele>176</ele>
        <time>2012-01-06T18:25:09Z</time>
      </trkpt>
      <trkpt lat="45.77894" lon="4.84107">
        <ele>176</ele>
        <time>2012-01-06T18:25:11Z</time>
      </trkpt>
      <trkpt lat="45.77892" lon="4.84104">
        <ele>176</ele>
        <time>2012-01-06T18:25:16Z</time>
      </trkpt>
      <trkpt lat="45.77892" lon="4.84103">
        <ele>176</ele>
        <time>2012-01-06T18:25:17Z</time>
      </trkpt>
      <trkpt lat="45.77894" lon="4.841">
        <ele>176</ele>
        <time>2012-01-06T18:25:21Z</time>
      </trkpt>
      <trkpt lat="45.77898" lon="4.84092">
        <ele>177</ele>
        <time>2012-01-06T18:25:26Z</time>
      </trkpt>
      <trkpt lat="45.77904" lon="4.84083">
        <ele>183</ele>
        <time>2012-01-06T18:25:30Z</time>
      </trkpt>
      <trkpt lat="45.77905" lon="4.8408">
        <ele>183</ele>
        <time>2012-01-06T18:25:31Z</time>
      </trkpt>
      <trkpt lat="45.77915" lon="4.84065">
        <ele>184</ele>
        <time>2012-01-06T18:25:37Z</time>
      </trkpt>
      <trkpt lat="45.77917" lon="4.84062">
        <ele>184</ele>
        <time>2012-01-06T18:25:38Z</time>
      </trkpt>
      <trkpt lat="45.77924" lon="4.84054">
        <ele>185</ele>
        <time>2012-01-06T18:25:43Z</time>
      </trkpt>
      <trkpt lat="45.77933" lon="4.84047">
        <ele>186</ele>
        <time>2012-01-06T18:25:47Z</time>
      </trkpt>
      <trkpt lat="45.77944" lon="4.84037">
        <ele>187</ele>
        <time>2012-01-06T18:25:52Z</time>
      </trkpt>
      <trkpt lat="45.77947" lon="4.8403">
        <ele>188</ele>
        <time>2012-01-06T18:25:54Z</time>
      </trkpt>
      <trkpt lat="45.77951" lon="4.84017">
        <ele>189</ele>
        <time>2012-01-06T18:25:58Z</time>
      </trkpt>
      <trkpt lat="45.77956" lon="4.84008">
        <ele>189</ele>
        <time>2012-01-06T18:26:02Z</time>
      </trkpt>
      <trkpt lat="45.77958" lon="4.84002">
        <ele>189</ele>
        <time>2012-01-06T18:26:04Z</time>
      </trkpt>
      <trkpt lat="45.77967" lon="4.83997">
        <ele>198</ele>
        <time>2012-01-06T18:26:08Z</time>
      </trkpt>
      <trkpt lat="45.77969" lon="4.8399">
        <ele>198</ele>
        <time>2012-01-06T18:26:11Z</time>
      </trkpt>
      <trkpt lat="45.7797" lon="4.83988">
        <ele>198</ele>
        <time>2012-01-06T18:26:13Z</time>
      </trkpt>
      <trkpt lat="45.77976" lon="4.83987">
        <ele>198</ele>
        <time>2012-01-06T18:26:18Z</time>
      </trkpt>
      <trkpt lat="45.77981" lon="4.83989">
        <ele>197</ele>
        <time>2012-01-06T18:26:22Z</time>
      </trkpt>
      <trkpt lat="45.77986" lon="4.83989">
        <ele>197</ele>
        <time>2012-01-06T18:26:27Z</time>
      </trkpt>
      <trkpt lat="45.77987" lon="4.83981">
        <ele>198</ele>
        <time>2012-01-06T18:26:33Z</time>
      </trkpt>
      <trkpt lat="45.77988" lon="4.8398">
        <ele>198</ele>
        <time>2012-01-06T18:26:34Z</time>
      </trkpt>
      <trkpt lat="45.77989" lon="4.83978">
        <ele>198</ele>
        <time>2012-01-06T18:26:37Z</time>
      </trkpt>
      <trkpt lat="45.77989" lon="4.83976">
        <ele>199</ele>
        <time>2012-01-06T18:26:39Z</time>
      </trkpt>
      <trkpt lat="45.7799" lon="4.83974">
        <ele>199</ele>
        <time>2012-01-06T18:26:40Z</time>
      </trkpt>
      <trkpt lat="45.77991" lon="4.83973">
        <ele>199</ele>
        <time>2012-01-06T18:26:41Z</time>
      </trkpt>
      <trkpt lat="45.77995" lon="4.8397">
        <ele>199</ele>
        <time>2012-01-06T18:26:44Z</time>
      </trkpt>
      <trkpt lat="45.78" lon="4.83967">
        <ele>200</ele>
        <time>2012-01-06T18:26:47Z</time>
      </trkpt>
      <trkpt lat="45.78003" lon="4.83961">
        <ele>201</ele>
        <time>2012-01-06T18:26:49Z</time>
      </trkpt>
      <trkpt lat="45.7801" lon="4.8396">
        <ele>201</ele>
        <time>2012-01-06T18:26:53Z</time>
      </trkpt>
      <trkpt lat="45.78013" lon="4.83963">
        <ele>200</ele>
        <time>2012-01-06T18:26:54Z</time>
      </trkpt>
      <trkpt lat="45.78015" lon="4.83966">
        <ele>200</ele>
        <time>2012-01-06T18:26:55Z</time>
      </trkpt>
      <trkpt lat="45.78023" lon="4.83983">
        <ele>199</ele>
        <time>2012-01-06T18:27:00Z</time>
      </trkpt>
      <trkpt lat="45.78025" lon="4.83989">
        <ele>199</ele>
        <time>2012-01-06T18:27:02Z</time>
      </trkpt>
      <trkpt lat="45.7803" lon="4.83999">
        <ele>199</ele>
        <time>2012-01-06T18:27:05Z</time>
      </trkpt>
      <trkpt lat="45.78034" lon="4.84007">
        <ele>196</ele>
        <time>2012-01-06T18:27:09Z</time>
      </trkpt>
      <trkpt lat="45.78035" lon="4.84007">
        <ele>196</ele>
        <time>2012-01-06T18:27:10Z</time>
      </trkpt>
      <trkpt lat="45.78037" lon="4.84006">
        <ele>197</ele>
        <time>2012-01-06T18:27:11Z</time>
      </trkpt>
      <trkpt lat="45.78042" lon="4.84002">
        <ele>197</ele>
        <time>2012-01-06T18:27:14Z</time>
      </trkpt>
      <trkpt lat="45.78043" lon="4.84001">
        <ele>197</ele>
        <time>2012-01-06T18:27:16Z</time>
      </trkpt>
      <trkpt lat="45.78043" lon="4.84">
        <ele>200</ele>
        <time>2012-01-06T18:27:19Z</time>
      </trkpt>
      <trkpt lat="45.78045" lon="4.83996">
        <ele>200</ele>
        <time>2012-01-06T18:27:23Z</time>
      </trkpt>
      <trkpt lat="45.78047" lon="4.83995">
        <ele>200</ele>
        <time>2012-01-06T18:27:24Z</time>
      </trkpt>
      <trkpt lat="45.7805" lon="4.83991">
        <ele>201</ele>
        <time>2012-01-06T18:27:26Z</time>
      </trkpt>
      <trkpt lat="45.78056" lon="4.83986">
        <ele>201</ele>
        <time>2012-01-06T18:27:29Z</time>
      </trkpt>
      <trkpt lat="45.78059" lon="4.83981">
        <ele>201</ele>
        <time>2012-01-06T18:27:32Z</time>
      </trkpt>
      <trkpt lat="45.78058" lon="4.83978">
        <ele>201</ele>
        <time>2012-01-06T18:27:34Z</time>
      </trkpt>
      <trkpt lat="45.78059" lon="4.83973">
        <ele>202</ele>
        <time>2012-01-06T18:27:37Z</time>
      </trkpt>
      <trkpt lat="45.78061" lon="4.8397">
        <ele>202</ele>
        <time>2012-01-06T18:27:39Z</time>
      </trkpt>
      <trkpt lat="45.78067" lon="4.83966">
        <ele>202</ele>
        <time>2012-01-06T18:27:42Z</time>
      </trkpt>
      <trkpt lat="45.78072" lon="4.83962">
        <ele>202</ele>
        <time>2012-01-06T18:27:45Z</time>
      </trkpt>
      <trkpt lat="45.78074" lon="4.83961">
        <ele>202</ele>
        <time>2012-01-06T18:27:46Z</time>
      </trkpt>
      <trkpt lat="45.78078" lon="4.83961">
        <ele>202</ele>
        <time>2012-01-06T18:27:49Z</time>
      </trkpt>
      <trkpt lat="45.78078" lon="4.83961">
        <ele>202</ele>
        <time>2012-01-06T18:27:50Z</time>
      </trkpt>
      <trkpt lat="45.78077" lon="4.83959">
        <ele>202</ele>
        <time>2012-01-06T18:27:52Z</time>
      </trkpt>
      <trkpt lat="45.78076" lon="4.83957">
        <ele>203</ele>
        <time>2012-01-06T18:27:54Z</time>
      </trkpt>
      <trkpt lat="45.78076" lon="4.83953">
        <ele>203</ele>
        <time>2012-01-06T18:27:56Z</time>
      </trkpt>
      <trkpt lat="45.78078" lon="4.83948">
        <ele>203</ele>
        <time>2012-01-06T18:27:59Z</time>
      </trkpt>
      <trkpt lat="45.78081" lon="4.83948">
        <ele>203</ele>
        <time>2012-01-06T18:28:03Z</time>
      </trkpt>
      <trkpt lat="45.78082" lon="4.83949">
        <ele>203</ele>
        <time>2012-01-06T18:28:04Z</time>
      </trkpt>
      <trkpt lat="45.78081" lon="4.83936">
        <ele>204</ele>
        <time>2012-01-06T18:28:08Z</time>
      </trkpt>
      <trkpt lat="45.78081" lon="4.83933">
        <ele>204</ele>
        <time>2012-01-06T18:28:09Z</time>
      </trkpt>
      <trkpt lat="45.78078" lon="4.83928">
        <ele>205</ele>
        <time>2012-01-06T18:28:13Z</time>
      </trkpt>
      <trkpt lat="45.78077" lon="4.83927">
        <ele>205</ele>
        <time>2012-01-06T18:28:15Z</time>
      </trkpt>
      <trkpt lat="45.78076" lon="4.83921">
        <ele>205</ele>
        <time>2012-01-06T18:28:19Z</time>
      </trkpt>
      <trkpt lat="45.78076" lon="4.83919">
        <ele>205</ele>
        <time>2012-01-06T18:28:20Z</time>
      </trkpt>
      <trkpt lat="45.78076" lon="4.83918">
        <ele>205</ele>
        <time>2012-01-06T18:28:22Z</time>
      </trkpt>
      <trkpt lat="45.7808" lon="4.83912">
        <ele>208</ele>
        <time>2012-01-06T18:28:25Z</time>
      </trkpt>
      <trkpt lat="45.7809" lon="4.83903">
        <ele>209</ele>
        <time>2012-01-06T18:28:31Z</time>
      </trkpt>
      <trkpt lat="45.7809" lon="4.839">
        <ele>209</ele>
        <time>2012-01-06T18:28:32Z</time>
      </trkpt>
      <trkpt lat="45.78095" lon="4.83891">
        <ele>210</ele>
        <time>2012-01-06T18:28:36Z</time>
      </trkpt>
      <trkpt lat="45.78101" lon="4.83889">
        <ele>211</ele>
        <time>2012-01-06T18:28:38Z</time>
      </trkpt>
      <trkpt lat="45.78105" lon="4.83888">
        <ele>211</ele>
        <time>2012-01-06T18:28:39Z</time>
      </trkpt>
      <trkpt lat="45.7811" lon="4.83886">
        <ele>211</ele>
        <time>2012-01-06T18:28:41Z</time>
      </trkpt>
      <trkpt lat="45.78125" lon="4.83885">
        <ele>211</ele>
        <time>2012-01-06T18:28:46Z</time>
      </trkpt>
      <trkpt lat="45.78144" lon="4.83891">
        <ele>211</ele>
        <time>2012-01-06T18:28:52Z</time>
      </trkpt>
      <trkpt lat="45.78154" lon="4.83904">
        <ele>211</ele>
        <time>2012-01-06T18:28:56Z</time>
      </trkpt>
      <trkpt lat="45.78158" lon="4.83911">
        <ele>210</ele>
        <time>2012-01-06T18:28:58Z</time>
      </trkpt>
      <trkpt lat="45.78159" lon="4.83914">
        <ele>210</ele>
        <time>2012-01-06T18:28:59Z</time>
      </trkpt>
      <trkpt lat="45.78162" lon="4.83922">
        <ele>210</ele>
        <time>2012-01-06T18:29:01Z</time>
      </trkpt>
      <trkpt lat="45.78167" lon="4.83937">
        <ele>214</ele>
        <time>2012-01-06T18:29:05Z</time>
      </trkpt>
      <trkpt lat="45.78168" lon="4.83944">
        <ele>215</ele>
        <time>2012-01-06T18:29:07Z</time>
      </trkpt>
      <trkpt lat="45.78171" lon="4.83952">
        <ele>216</ele>
        <time>2012-01-06T18:29:10Z</time>
      </trkpt>
      <trkpt lat="45.7817" lon="4.83957">
        <ele>216</ele>
        <time>2012-01-06T18:29:12Z</time>
      </trkpt>
      <trkpt lat="45.78168" lon="4.83962">
        <ele>217</ele>
        <time>2012-01-06T18:29:15Z</time>
      </trkpt>
      <trkpt lat="45.78165" lon="4.83969">
        <ele>211</ele>
        <time>2012-01-06T18:29:18Z</time>
      </trkpt>
      <trkpt lat="45.78164" lon="4.83984">
        <ele>213</ele>
        <time>2012-01-06T18:29:24Z</time>
      </trkpt>
      <trkpt lat="45.78163" lon="4.83989">
        <ele>214</ele>
        <time>2012-01-06T18:29:26Z</time>
      </trkpt>
      <trkpt lat="45.78161" lon="4.83999">
        <ele>215</ele>
        <time>2012-01-06T18:29:30Z</time>
      </trkpt>
      <trkpt lat="45.78161" lon="4.84002">
        <ele>216</ele>
        <time>2012-01-06T18:29:31Z</time>
      </trkpt>
      <trkpt lat="45.78161" lon="4.84014">
        <ele>215</ele>
        <time>2012-01-06T18:29:35Z</time>
      </trkpt>
      <trkpt lat="45.78161" lon="4.84025">
        <ele>215</ele>
        <time>2012-01-06T18:29:40Z</time>
      </trkpt>
      <trkpt lat="45.78162" lon="4.84027">
        <ele>215</ele>
        <time>2012-01-06T18:29:41Z</time>
      </trkpt>
      <trkpt lat="45.78163" lon="4.84028">
        <ele>215</ele>
        <time>2012-01-06T18:29:44Z</time>
      </trkpt>
      <trkpt lat="45.78163" lon="4.84028">
        <ele>215</ele>
        <time>2012-01-06T18:29:45Z</time>
      </trkpt>
      <trkpt lat="45.78164" lon="4.84028">
        <ele>215</ele>
        <time>2012-01-06T18:29:46Z</time>
      </trkpt>
      <trkpt lat="45.7817" lon="4.84029">
        <ele>223</ele>
        <time>2012-01-06T18:29:49Z</time>
      </trkpt>
      <trkpt lat="45.78172" lon="4.84029">
        <ele>223</ele>
        <time>2012-01-06T18:29:50Z</time>
      </trkpt>
      <trkpt lat="45.78177" lon="4.84028">
        <ele>223</ele>
        <time>2012-01-06T18:29:53Z</time>
      </trkpt>
      <trkpt lat="45.78184" lon="4.84029">
        <ele>224</ele>
        <time>2012-01-06T18:29:58Z</time>
      </trkpt>
      <trkpt lat="45.78185" lon="4.8403">
        <ele>224</ele>
        <time>2012-01-06T18:29:59Z</time>
      </trkpt>
      <trkpt lat="45.78189" lon="4.84032">
        <ele>224</ele>
        <time>2012-01-06T18:30:02Z</time>
      </trkpt>
      <trkpt lat="45.78193" lon="4.84033">
        <ele>225</ele>
        <time>2012-01-06T18:30:05Z</time>
      </trkpt>
      <trkpt lat="45.78197" lon="4.84035">
        <ele>225</ele>
        <time>2012-01-06T18:30:08Z</time>
      </trkpt>
      <trkpt lat="45.78201" lon="4.84039">
        <ele>226</ele>
        <time>2012-01-06T18:30:11Z</time>
      </trkpt>
      <trkpt lat="45.78202" lon="4.8404">
        <ele>226</ele>
        <time>2012-01-06T18:30:12Z</time>
      </trkpt>
      <trkpt lat="45.78205" lon="4.84041">
        <ele>226</ele>
        <time>2012-01-06T18:30:14Z</time>
      </trkpt>
      <trkpt lat="45.78205" lon="4.84042">
        <ele>226</ele>
        <time>2012-01-06T18:30:15Z</time>
      </trkpt>
      <trkpt lat="45.78207" lon="4.8404">
        <ele>226</ele>
        <time>2012-01-06T18:30:16Z</time>
      </trkpt>
      <trkpt lat="45.78212" lon="4.84039">
        <ele>226</ele>
        <time>2012-01-06T18:30:20Z</time>
      </trkpt>
      <trkpt lat="45.78213" lon="4.8404">
        <ele>226</ele>
        <time>2012-01-06T18:30:21Z</time>
      </trkpt>
      <trkpt lat="45.78215" lon="4.84042">
        <ele>227</ele>
        <time>2012-01-06T18:30:31Z</time>
      </trkpt>
      <trkpt lat="45.78217" lon="4.84042">
        <ele>227</ele>
        <time>2012-01-06T18:31:09Z</time>
      </trkpt>
      <trkpt lat="45.78216" lon="4.84039">
        <ele>227</ele>
        <time>2012-01-06T18:31:15Z</time>
      </trkpt>
      <trkpt lat="45.78216" lon="4.84039">
        <ele>227</ele>
        <time>2012-01-06T18:31:26Z</time>
      </trkpt>
      <trkpt lat="45.78216" lon="4.84042">
        <ele>227</ele>
        <time>2012-01-06T18:31:42Z</time>
      </trkpt>
      <trkpt lat="45.78217" lon="4.84044">
        <ele>227</ele>
        <time>2012-01-06T18:31:43Z</time>
      </trkpt>
      <trkpt lat="45.78219" lon="4.84056">
        <ele>228</ele>
        <time>2012-01-06T18:31:47Z</time>
      </trkpt>
      <trkpt lat="45.78221" lon="4.84067">
        <ele>229</ele>
        <time>2012-01-06T18:31:51Z</time>
      </trkpt>
      <trkpt lat="45.78221" lon="4.84071">
        <ele>229</ele>
        <time>2012-01-06T18:31:52Z</time>
      </trkpt>
      <trkpt lat="45.78222" lon="4.84073">
        <ele>229</ele>
        <time>2012-01-06T18:31:53Z</time>
      </trkpt>
      <trkpt lat="45.78216" lon="4.84085">
        <ele>230</ele>
        <time>2012-01-06T18:31:58Z</time>
      </trkpt>
      <trkpt lat="45.78212" lon="4.8409">
        <ele>229</ele>
        <time>2012-01-06T18:32:00Z</time>
      </trkpt>
      <trkpt lat="45.78206" lon="4.84098">
        <ele>228</ele>
        <time>2012-01-06T18:32:04Z</time>
      </trkpt>
      <trkpt lat="45.782" lon="4.84109">
        <ele>228</ele>
        <time>2012-01-06T18:32:08Z</time>
      </trkpt>
      <trkpt lat="45.78199" lon="4.84112">
        <ele>228</ele>
        <time>2012-01-06T18:32:09Z</time>
      </trkpt>
      <trkpt lat="45.78198" lon="4.84127">
        <ele>227</ele>
        <time>2012-01-06T18:32:14Z</time>
      </trkpt>
      <trkpt lat="45.78199" lon="4.84136">
        <ele>227</ele>
        <time>2012-01-06T18:32:17Z</time>
      </trkpt>
      <trkpt lat="45.78199" lon="4.84141">
        <ele>227</ele>
        <time>2012-01-06T18:32:19Z</time>
      </trkpt>
      <trkpt lat="45.78201" lon="4.84161">
        <ele>226</ele>
        <time>2012-01-06T18:32:24Z</time>
      </trkpt>
      <trkpt lat="45.78201" lon="4.84164">
        <ele>226</ele>
        <time>2012-01-06T18:32:25Z</time>
      </trkpt>
      <trkpt lat="45.78201" lon="4.84173">
        <ele>219</ele>
        <time>2012-01-06T18:32:28Z</time>
      </trkpt>
      <trkpt lat="45.782" lon="4.84174">
        <ele>219</ele>
        <time>2012-01-06T18:32:29Z</time>
      </trkpt>
      <trkpt lat="45.78197" lon="4.84179">
        <ele>219</ele>
        <time>2012-01-06T18:32:32Z</time>
      </trkpt>
      <trkpt lat="45.78197" lon="4.8418">
        <ele>219</ele>
        <time>2012-01-06T18:32:33Z</time>
      </trkpt>
      <trkpt lat="45.78196" lon="4.84186">
        <ele>218</ele>
        <time>2012-01-06T18:32:35Z</time>
      </trkpt>
      <trkpt lat="45.78196" lon="4.84188">
        <ele>218</ele>
        <time>2012-01-06T18:32:37Z</time>
      </trkpt>
      <trkpt lat="45.78196" lon="4.84185">
        <ele>218</ele>
        <time>2012-01-06T18:32:39Z</time>
      </trkpt>
      <trkpt lat="45.78195" lon="4.84186">
        <ele>218</ele>
        <time>2012-01-06T18:32:41Z</time>
      </trkpt>
      <trkpt lat="45.78193" lon="4.84189">
        <ele>218</ele>
        <time>2012-01-06T18:32:43Z</time>
      </trkpt>
      <trkpt lat="45.78189" lon="4.84198">
        <ele>216</ele>
        <time>2012-01-06T18:32:48Z</time>
      </trkpt>
      <trkpt lat="45.78186" lon="4.84204">
        <ele>215</ele>
        <time>2012-01-06T18:32:51Z</time>
      </trkpt>
      <trkpt lat="45.78182" lon="4.84207">
        <ele>215</ele>
        <time>2012-01-06T18:32:54Z</time>
      </trkpt>
      <trkpt lat="45.78176" lon="4.84217">
        <ele>212</ele>
        <time>2012-01-06T18:32:59Z</time>
      </trkpt>
      <trkpt lat="45.78175" lon="4.84217">
        <ele>212</ele>
        <time>2012-01-06T18:33:00Z</time>
      </trkpt>
      <trkpt lat="45.78171" lon="4.84215">
        <ele>212</ele>
        <time>2012-01-06T18:33:02Z</time>
      </trkpt>
      <trkpt lat="45.78169" lon="4.84212">
        <ele>213</ele>
        <time>2012-01-06T18:33:03Z</time>
      </trkpt>
      <trkpt lat="45.78162" lon="4.84203">
        <ele>201</ele>
        <time>2012-01-06T18:33:08Z</time>
      </trkpt>
      <trkpt lat="45.7816" lon="4.84198">
        <ele>202</ele>
        <time>2012-01-06T18:33:11Z</time>
      </trkpt>
      <trkpt lat="45.78158" lon="4.84196">
        <ele>202</ele>
        <time>2012-01-06T18:33:12Z</time>
      </trkpt>
      <trkpt lat="45.78155" lon="4.8419">
        <ele>203</ele>
        <time>2012-01-06T18:33:15Z</time>
      </trkpt>
      <trkpt lat="45.78148" lon="4.84179">
        <ele>204</ele>
        <time>2012-01-06T18:33:21Z</time>
      </trkpt>
      <trkpt lat="45.78146" lon="4.84179">
        <ele>204</ele>
        <time>2012-01-06T18:33:22Z</time>
      </trkpt>
      <trkpt lat="45.78144" lon="4.84178">
        <ele>203</ele>
        <time>2012-01-06T18:33:23Z</time>
      </trkpt>
      <trkpt lat="45.78142" lon="4.84174">
        <ele>203</ele>
        <time>2012-01-06T18:33:25Z</time>
      </trkpt>
      <trkpt lat="45.7814" lon="4.84172">
        <ele>203</ele>
        <time>2012-01-06T18:33:27Z</time>
      </trkpt>
      <trkpt lat="45.78138" lon="4.84166">
        <ele>211</ele>
        <time>2012-01-06T18:33:31Z</time>
      </trkpt>
      <trkpt lat="45.78138" lon="4.84163">
        <ele>211</ele>
        <time>2012-01-06T18:33:35Z</time>
      </trkpt>
      <trkpt lat="45.7814" lon="4.84162">
        <ele>212</ele>
        <time>2012-01-06T18:33:36Z</time>
      </trkpt>
      <trkpt lat="45.78141" lon="4.8416">
        <ele>212</ele>
        <time>2012-01-06T18:33:42Z</time>
      </trkpt>
      <trkpt lat="45.7814" lon="4.8416">
        <ele>212</ele>
        <time>2012-01-06T18:33:43Z</time>
      </trkpt>
      <trkpt lat="45.78137" lon="4.84155">
        <ele>211</ele>
        <time>2012-01-06T18:33:47Z</time>
      </trkpt>
      <trkpt lat="45.78135" lon="4.84152">
        <ele>211</ele>
        <time>2012-01-06T18:33:51Z</time>
      </trkpt>
      <trkpt lat="45.78134" lon="4.84151">
        <ele>211</ele>
        <time>2012-01-06T18:33:52Z</time>
      </trkpt>
      <trkpt lat="45.78132" lon="4.84148">
        <ele>211</ele>
        <time>2012-01-06T18:33:55Z</time>
      </trkpt>
      <trkpt lat="45.78132" lon="4.84147">
        <ele>211</ele>
        <time>2012-01-06T18:33:57Z</time>
      </trkpt>
      <trkpt lat="45.78131" lon="4.84146">
        <ele>211</ele>
        <time>2012-01-06T18:33:59Z</time>
      </trkpt>
      <trkpt lat="45.7813" lon="4.84144">
        <ele>211</ele>
        <time>2012-01-06T18:34:02Z</time>
      </trkpt>
      <trkpt lat="45.78127" lon="4.84144">
        <ele>210</ele>
        <time>2012-01-06T18:34:06Z</time>
      </trkpt>
      <trkpt lat="45.78125" lon="4.84142">
        <ele>210</ele>
        <time>2012-01-06T18:34:11Z</time>
      </trkpt>
      <trkpt lat="45.78125" lon="4.84135">
        <ele>210</ele>
        <time>2012-01-06T18:34:15Z</time>
      </trkpt>
      <trkpt lat="45.78121" lon="4.84134">
        <ele>210</ele>
        <time>2012-01-06T18:34:18Z</time>
      </trkpt>
      <trkpt lat="45.78118" lon="4.84136">
        <ele>210</ele>
        <time>2012-01-06T18:34:20Z</time>
      </trkpt>
      <trkpt lat="45.78117" lon="4.8414">
        <ele>209</ele>
        <time>2012-01-06T18:34:24Z</time>
      </trkpt>
      <trkpt lat="45.78119" lon="4.84138">
        <ele>210</ele>
        <time>2012-01-06T18:34:28Z</time>
      </trkpt>
      <trkpt lat="45.7812" lon="4.84134">
        <ele>210</ele>
        <time>2012-01-06T18:34:34Z</time>
      </trkpt>
      <trkpt lat="45.78114" lon="4.84138">
        <ele>209</ele>
        <time>2012-01-06T18:34:37Z</time>
      </trkpt>
      <trkpt lat="45.78105" lon="4.84142">
        <ele>207</ele>
        <time>2012-01-06T18:34:41Z</time>
      </trkpt>
      <trkpt lat="45.78098" lon="4.84146">
        <ele>206</ele>
        <time>2012-01-06T18:34:44Z</time>
      </trkpt>
      <trkpt lat="45.78088" lon="4.84144">
        <ele>205</ele>
        <time>2012-01-06T18:34:50Z</time>
      </trkpt>
      <trkpt lat="45.78086" lon="4.84143">
        <ele>205</ele>
        <time>2012-01-06T18:34:51Z</time>
      </trkpt>
      <trkpt lat="45.78085" lon="4.84141">
        <ele>206</ele>
        <time>2012-01-06T18:34:52Z</time>
      </trkpt>
      <trkpt lat="45.78084" lon="4.84134">
        <ele>207</ele>
        <time>2012-01-06T18:34:54Z</time>
      </trkpt>
      <trkpt lat="45.7808" lon="4.84127">
        <ele>196</ele>
        <time>2012-01-06T18:34:57Z</time>
      </trkpt>
      <trkpt lat="45.78076" lon="4.8412">
        <ele>197</ele>
        <time>2012-01-06T18:35:00Z</time>
      </trkpt>
      <trkpt lat="45.78069" lon="4.84108">
        <ele>198</ele>
        <time>2012-01-06T18:35:05Z</time>
      </trkpt>
      <trkpt lat="45.78068" lon="4.84105">
        <ele>198</ele>
        <time>2012-01-06T18:35:06Z</time>
      </trkpt>
      <trkpt lat="45.78065" lon="4.84098">
        <ele>198</ele>
        <time>2012-01-06T18:35:09Z</time>
      </trkpt>
      <trkpt lat="45.78064" lon="4.84096">
        <ele>198</ele>
        <time>2012-01-06T18:35:10Z</time>
      </trkpt>
      <trkpt lat="45.78064" lon="4.84093">
        <ele>199</ele>
        <time>2012-01-06T18:35:11Z</time>
      </trkpt>
      <trkpt lat="45.78068" lon="4.84087">
        <ele>201</ele>
        <time>2012-01-06T18:35:14Z</time>
      </trkpt>
      <trkpt lat="45.78075" lon="4.8408">
        <ele>204</ele>
        <time>2012-01-06T18:35:18Z</time>
      </trkpt>
      <trkpt lat="45.78079" lon="4.84075">
        <ele>204</ele>
        <time>2012-01-06T18:35:20Z</time>
      </trkpt>
      <trkpt lat="45.78084" lon="4.84069">
        <ele>209</ele>
        <time>2012-01-06T18:35:23Z</time>
      </trkpt>
      <trkpt lat="45.7809" lon="4.84061">
        <ele>210</ele>
        <time>2012-01-06T18:35:26Z</time>
      </trkpt>
      <trkpt lat="45.78096" lon="4.84055">
        <ele>210</ele>
        <time>2012-01-06T18:35:29Z</time>
      </trkpt>
      <trkpt lat="45.78101" lon="4.84041">
        <ele>210</ele>
        <time>2012-01-06T18:35:33Z</time>
      </trkpt>
      <trkpt lat="45.78103" lon="4.84039">
        <ele>210</ele>
        <time>2012-01-06T18:35:34Z</time>
      </trkpt>
      <trkpt lat="45.78116" lon="4.84027">
        <ele>211</ele>
        <time>2012-01-06T18:35:40Z</time>
      </trkpt>
      <trkpt lat="45.78118" lon="4.84025">
        <ele>211</ele>
        <time>2012-01-06T18:35:41Z</time>
      </trkpt>
      <trkpt lat="45.78128" lon="4.84017">
        <ele>212</ele>
        <time>2012-01-06T18:35:45Z</time>
      </trkpt>
      <trkpt lat="45.78132" lon="4.84012">
        <ele>212</ele>
        <time>2012-01-06T18:35:47Z</time>
      </trkpt>
      <trkpt lat="45.78135" lon="4.84001">
        <ele>213</ele>
        <time>2012-01-06T18:35:50Z</time>
      </trkpt>
      <trkpt lat="45.78142" lon="4.83988">
        <ele>211</ele>
        <time>2012-01-06T18:35:54Z</time>
      </trkpt>
      <trkpt lat="45.78145" lon="4.83985">
        <ele>211</ele>
        <time>2012-01-06T18:35:55Z</time>
      </trkpt>
      <trkpt lat="45.78154" lon="4.83971">
        <ele>211</ele>
        <time>2012-01-06T18:36:00Z</time>
      </trkpt>
      <trkpt lat="45.78156" lon="4.83968">
        <ele>211</ele>
        <time>2012-01-06T18:36:01Z</time>
      </trkpt>
      <trkpt lat="45.78165" lon="4.8396">
        <ele>211</ele>
        <time>2012-01-06T18:36:05Z</time>
      </trkpt>
      <trkpt lat="45.7817" lon="4.83954">
        <ele>216</ele>
        <time>2012-01-06T18:36:08Z</time>
      </trkpt>
      <trkpt lat="45.7817" lon="4.83951">
        <ele>216</ele>
        <time>2012-01-06T18:36:09Z</time>
      </trkpt>
      <trkpt lat="45.78164" lon="4.83934">
        <ele>210</ele>
        <time>2012-01-06T18:36:14Z</time>
      </trkpt>
      <trkpt lat="45.7816" lon="4.83929">
        <ele>210</ele>
        <time>2012-01-06T18:36:16Z</time>
      </trkpt>
      <trkpt lat="45.78152" lon="4.83917">
        <ele>210</ele>
        <time>2012-01-06T18:36:20Z</time>
      </trkpt>
      <trkpt lat="45.78144" lon="4.83912">
        <ele>211</ele>
        <time>2012-01-06T18:36:24Z</time>
      </trkpt>
      <trkpt lat="45.7813" lon="4.83915">
        <ele>210</ele>
        <time>2012-01-06T18:36:30Z</time>
      </trkpt>
      <trkpt lat="45.78125" lon="4.83916">
        <ele>210</ele>
        <time>2012-01-06T18:36:32Z</time>
      </trkpt>
      <trkpt lat="45.78117" lon="4.83918">
        <ele>208</ele>
        <time>2012-01-06T18:36:35Z</time>
      </trkpt>
      <trkpt lat="45.78108" lon="4.83918">
        <ele>208</ele>
        <time>2012-01-06T18:36:39Z</time>
      </trkpt>
      <trkpt lat="45.78106" lon="4.83918">
        <ele>208</ele>
        <time>2012-01-06T18:36:41Z</time>
      </trkpt>
      <trkpt lat="45.78106" lon="4.83917">
        <ele>208</ele>
        <time>2012-01-06T18:36:44Z</time>
      </trkpt>
      <trkpt lat="45.78107" lon="4.83915">
        <ele>209</ele>
        <time>2012-01-06T18:36:46Z</time>
      </trkpt>
      <trkpt lat="45.78112" lon="4.83904">
        <ele>210</ele>
        <time>2012-01-06T18:36:50Z</time>
      </trkpt>
      <trkpt lat="45.78114" lon="4.83897">
        <ele>211</ele>
        <time>2012-01-06T18:36:52Z</time>
      </trkpt>
      <trkpt lat="45.78116" lon="4.83884">
        <ele>211</ele>
        <time>2012-01-06T18:36:55Z</time>
      </trkpt>
      <trkpt lat="45.78121" lon="4.83869">
        <ele>212</ele>
        <time>2012-01-06T18:37:00Z</time>
      </trkpt>
      <trkpt lat="45.78132" lon="4.8386">
        <ele>212</ele>
        <time>2012-01-06T18:37:06Z</time>
      </trkpt>
      <trkpt lat="45.78137" lon="4.83854">
        <ele>213</ele>
        <time>2012-01-06T18:37:09Z</time>
      </trkpt>
      <trkpt lat="45.78143" lon="4.8385">
        <ele>213</ele>
        <time>2012-01-06T18:37:12Z</time>
      </trkpt>
      <trkpt lat="45.78153" lon="4.8384">
        <ele>213</ele>
        <time>2012-01-06T18:37:18Z</time>
      </trkpt>
      <trkpt lat="45.78162" lon="4.8383">
        <ele>216</ele>
        <time>2012-01-06T18:37:23Z</time>
      </trkpt>
      <trkpt lat="45.78167" lon="4.83825">
        <ele>215</ele>
        <time>2012-01-06T18:37:26Z</time>
      </trkpt>
      <trkpt lat="45.7817" lon="4.83825">
        <ele>215</ele>
        <time>2012-01-06T18:37:27Z</time>
      </trkpt>
      <trkpt lat="45.78182" lon="4.83814">
        <ele>217</ele>
        <time>2012-01-06T18:37:32Z</time>
      </trkpt>
      <trkpt lat="45.78185" lon="4.83812">
        <ele>217</ele>
        <time>2012-01-06T18:37:33Z</time>
      </trkpt>
      <trkpt lat="45.78186" lon="4.83809">
        <ele>217</ele>
        <time>2012-01-06T18:37:34Z</time>
      </trkpt>
      <trkpt lat="45.78188" lon="4.83804">
        <ele>217</ele>
        <time>2012-01-06T18:37:36Z</time>
      </trkpt>
      <trkpt lat="45.78189" lon="4.83792">
        <ele>218</ele>
        <time>2012-01-06T18:37:42Z</time>
      </trkpt>
      <trkpt lat="45.78184" lon="4.83788">
        <ele>219</ele>
        <time>2012-01-06T18:37:47Z</time>
      </trkpt>
      <trkpt lat="45.78173" lon="4.83781">
        <ele>219</ele>
        <time>2012-01-06T18:37:53Z</time>
      </trkpt>
      <trkpt lat="45.78167" lon="4.83775">
        <ele>220</ele>
        <time>2012-01-06T18:37:57Z</time>
      </trkpt>
      <trkpt lat="45.78167" lon="4.83773">
        <ele>223</ele>
        <time>2012-01-06T18:37:59Z</time>
      </trkpt>
      <trkpt lat="45.78165" lon="4.8377">
        <ele>223</ele>
        <time>2012-01-06T18:38:02Z</time>
      </trkpt>
      <trkpt lat="45.78161" lon="4.83773">
        <ele>223</ele>
        <time>2012-01-06T18:38:06Z</time>
      </trkpt>
      <trkpt lat="45.78158" lon="4.83777">
        <ele>222</ele>
        <time>2012-01-06T18:38:08Z</time>
      </trkpt>
      <trkpt lat="45.78154" lon="4.83784">
        <ele>222</ele>
        <time>2012-01-06T18:38:11Z</time>
      </trkpt>
      <trkpt lat="45.78153" lon="4.83788">
        <ele>221</ele>
        <time>2012-01-06T18:38:12Z</time>
      </trkpt>
      <trkpt lat="45.7814" lon="4.83795">
        <ele>221</ele>
        <time>2012-01-06T18:38:17Z</time>
      </trkpt>
      <trkpt lat="45.78136" lon="4.83801">
        <ele>221</ele>
        <time>2012-01-06T18:38:19Z</time>
      </trkpt>
      <trkpt lat="45.7813" lon="4.83807">
        <ele>221</ele>
        <time>2012-01-06T18:38:22Z</time>
      </trkpt>
      <trkpt lat="45.78121" lon="4.83819">
        <ele>220</ele>
        <time>2012-01-06T18:38:27Z</time>
      </trkpt>
      <trkpt lat="45.7812" lon="4.83823">
        <ele>220</ele>
        <time>2012-01-06T18:38:28Z</time>
      </trkpt>
      <trkpt lat="45.78111" lon="4.83834">
        <ele>214</ele>
        <time>2012-01-06T18:38:33Z</time>
      </trkpt>
      <trkpt lat="45.78107" lon="4.83839">
        <ele>214</ele>
        <time>2012-01-06T18:38:35Z</time>
      </trkpt>
      <trkpt lat="45.78105" lon="4.83839">
        <ele>214</ele>
        <time>2012-01-06T18:38:37Z</time>
      </trkpt>
      <trkpt lat="45.78101" lon="4.83835">
        <ele>214</ele>
        <time>2012-01-06T18:38:39Z</time>
      </trkpt>
      <trkpt lat="45.781" lon="4.83833">
        <ele>219</ele>
        <time>2012-01-06T18:38:41Z</time>
      </trkpt>
      <trkpt lat="45.78098" lon="4.8383">
        <ele>219</ele>
        <time>2012-01-06T18:38:43Z</time>
      </trkpt>
      <trkpt lat="45.78096" lon="4.83826">
        <ele>219</ele>
        <time>2012-01-06T18:38:46Z</time>
      </trkpt>
      <trkpt lat="45.78094" lon="4.83822">
        <ele>219</ele>
        <time>2012-01-06T18:38:50Z</time>
      </trkpt>
      <trkpt lat="45.78094" lon="4.8382">
        <ele>219</ele>
        <time>2012-01-06T18:38:51Z</time>
      </trkpt>
      <trkpt lat="45.78093" lon="4.83816">
        <ele>220</ele>
        <time>2012-01-06T18:38:54Z</time>
      </trkpt>
      <trkpt lat="45.78088" lon="4.8381">
        <ele>220</ele>
        <time>2012-01-06T18:39:00Z</time>
      </trkpt>
      <trkpt lat="45.7808" lon="4.83804">
        <ele>227</ele>
        <time>2012-01-06T18:39:03Z</time>
      </trkpt>
      <trkpt lat="45.78078" lon="4.83802">
        <ele>227</ele>
        <time>2012-01-06T18:39:04Z</time>
      </trkpt>
      <trkpt lat="45.78068" lon="4.83794">
        <ele>229</ele>
        <time>2012-01-06T18:39:09Z</time>
      </trkpt>
      <trkpt lat="45.78065" lon="4.8379">
        <ele>230</ele>
        <time>2012-01-06T18:39:11Z</time>
      </trkpt>
      <trkpt lat="45.78065" lon="4.83787">
        <ele>230</ele>
        <time>2012-01-06T18:39:12Z</time>
      </trkpt>
      <trkpt lat="45.78063" lon="4.83782">
        <ele>230</ele>
        <time>2012-01-06T18:39:14Z</time>
      </trkpt>
      <trkpt lat="45.78057" lon="4.83778">
        <ele>231</ele>
        <time>2012-01-06T18:39:18Z</time>
      </trkpt>
      <trkpt lat="45.7805" lon="4.83769">
        <ele>232</ele>
        <time>2012-01-06T18:39:22Z</time>
      </trkpt>
      <trkpt lat="45.78049" lon="4.83768">
        <ele>232</ele>
        <time>2012-01-06T18:39:23Z</time>
      </trkpt>
      <trkpt lat="45.7804" lon="4.83755">
        <ele>234</ele>
        <time>2012-01-06T18:39:27Z</time>
      </trkpt>
      <trkpt lat="45.78037" lon="4.83753">
        <ele>234</ele>
        <time>2012-01-06T18:39:31Z</time>
      </trkpt>
      <trkpt lat="45.78036" lon="4.83751">
        <ele>235</ele>
        <time>2012-01-06T18:39:34Z</time>
      </trkpt>
      <trkpt lat="45.78033" lon="4.83748">
        <ele>240</ele>
        <time>2012-01-06T18:39:37Z</time>
      </trkpt>
      <trkpt lat="45.78029" lon="4.83743">
        <ele>241</ele>
        <time>2012-01-06T18:39:42Z</time>
      </trkpt>
      <trkpt lat="45.78029" lon="4.8374">
        <ele>241</ele>
        <time>2012-01-06T18:39:46Z</time>
      </trkpt>
      <trkpt lat="45.78031" lon="4.83738">
        <ele>241</ele>
        <time>2012-01-06T18:39:49Z</time>
      </trkpt>
      <trkpt lat="45.78031" lon="4.83739">
        <ele>241</ele>
        <time>2012-01-06T18:39:50Z</time>
      </trkpt>
      <trkpt lat="45.7803" lon="4.83742">
        <ele>241</ele>
        <time>2012-01-06T18:39:52Z</time>
      </trkpt>
      <trkpt lat="45.7803" lon="4.83743">
        <ele>241</ele>
        <time>2012-01-06T18:39:53Z</time>
      </trkpt>
      <trkpt lat="45.78027" lon="4.83749">
        <ele>241</ele>
        <time>2012-01-06T18:39:56Z</time>
      </trkpt>
      <trkpt lat="45.78026" lon="4.8375">
        <ele>241</ele>
        <time>2012-01-06T18:39:57Z</time>
      </trkpt>
      <trkpt lat="45.78024" lon="4.83748">
        <ele>242</ele>
        <time>2012-01-06T18:39:59Z</time>
      </trkpt>
      <trkpt lat="45.78023" lon="4.83745">
        <ele>242</ele>
        <time>2012-01-06T18:40:00Z</time>
      </trkpt>
      <trkpt lat="45.78021" lon="4.83739">
        <ele>242</ele>
        <time>2012-01-06T18:40:11Z</time>
      </trkpt>
      <trkpt lat="45.7802" lon="4.83736">
        <ele>242</ele>
        <time>2012-01-06T18:40:19Z</time>
      </trkpt>
      <trkpt lat="45.78017" lon="4.83734">
        <ele>242</ele>
        <time>2012-01-06T18:40:23Z</time>
      </trkpt>
      <trkpt lat="45.78018" lon="4.83738">
        <ele>242</ele>
        <time>2012-01-06T18:40:32Z</time>
      </trkpt>
      <trkpt lat="45.78023" lon="4.83741">
        <ele>242</ele>
        <time>2012-01-06T18:40:55Z</time>
      </trkpt>
      <trkpt lat="45.78022" lon="4.83742">
        <ele>242</ele>
        <time>2012-01-06T18:41:07Z</time>
      </trkpt>
      <trkpt lat="45.78022" lon="4.83737">
        <ele>242</ele>
        <time>2012-01-06T18:41:12Z</time>
      </trkpt>
      <trkpt lat="45.78023" lon="4.83731">
        <ele>241</ele>
        <time>2012-01-06T18:41:14Z</time>
      </trkpt>
      <trkpt lat="45.78023" lon="4.83718">
        <ele>241</ele>
        <time>2012-01-06T18:41:17Z</time>
      </trkpt>
      <trkpt lat="45.78021" lon="4.83704">
        <ele>242</ele>
        <time>2012-01-06T18:41:21Z</time>
      </trkpt>
      <trkpt lat="45.78021" lon="4.83695">
        <ele>242</ele>
        <time>2012-01-06T18:41:23Z</time>
      </trkpt>
      <trkpt lat="45.78021" lon="4.83675">
        <ele>243</ele>
        <time>2012-01-06T18:41:28Z</time>
      </trkpt>
      <trkpt lat="45.78021" lon="4.83671">
        <ele>243</ele>
        <time>2012-01-06T18:41:29Z</time>
      </trkpt>
      <trkpt lat="45.78022" lon="4.83668">
        <ele>243</ele>
        <time>2012-01-06T18:41:30Z</time>
      </trkpt>
      <trkpt lat="45.78025" lon="4.83653">
        <ele>245</ele>
        <time>2012-01-06T18:41:34Z</time>
      </trkpt>
      <trkpt lat="45.78025" lon="4.8365">
        <ele>245</ele>
        <time>2012-01-06T18:41:35Z</time>
      </trkpt>
      <trkpt lat="45.78021" lon="4.83631">
        <ele>246</ele>
        <time>2012-01-06T18:41:39Z</time>
      </trkpt>
      <trkpt lat="45.78021" lon="4.83624">
        <ele>246</ele>
        <time>2012-01-06T18:41:41Z</time>
      </trkpt>
      <trkpt lat="45.78022" lon="4.83623">
        <ele>246</ele>
        <time>2012-01-06T18:41:42Z</time>
      </trkpt>
      <trkpt lat="45.78024" lon="4.83623">
        <ele>246</ele>
        <time>2012-01-06T18:41:43Z</time>
      </trkpt>
      <trkpt lat="45.78028" lon="4.83624">
        <ele>246</ele>
        <time>2012-01-06T18:41:45Z</time>
      </trkpt>
      <trkpt lat="45.78036" lon="4.83625">
        <ele>245</ele>
        <time>2012-01-06T18:41:49Z</time>
      </trkpt>
      <trkpt lat="45.78041" lon="4.83629">
        <ele>245</ele>
        <time>2012-01-06T18:41:51Z</time>
      </trkpt>
      <trkpt lat="45.78053" lon="4.83631">
        <ele>244</ele>
        <time>2012-01-06T18:41:55Z</time>
      </trkpt>
      <trkpt lat="45.7806" lon="4.83635">
        <ele>244</ele>
        <time>2012-01-06T18:41:58Z</time>
      </trkpt>
      <trkpt lat="45.78065" lon="4.83638">
        <ele>243</ele>
        <time>2012-01-06T18:42:00Z</time>
      </trkpt>
      <trkpt lat="45.78066" lon="4.83638">
        <ele>243</ele>
        <time>2012-01-06T18:42:01Z</time>
      </trkpt>
      <trkpt lat="45.78073" lon="4.8364">
        <ele>243</ele>
        <time>2012-01-06T18:42:04Z</time>
      </trkpt>
      <trkpt lat="45.78082" lon="4.83645">
        <ele>242</ele>
        <time>2012-01-06T18:42:07Z</time>
      </trkpt>
      <trkpt lat="45.78094" lon="4.83655">
        <ele>237</ele>
        <time>2012-01-06T18:42:11Z</time>
      </trkpt>
      <trkpt lat="45.78098" lon="4.83657">
        <ele>237</ele>
        <time>2012-01-06T18:42:12Z</time>
      </trkpt>
      <trkpt lat="45.78105" lon="4.83664">
        <ele>236</ele>
        <time>2012-01-06T18:42:16Z</time>
      </trkpt>
      <trkpt lat="45.78114" lon="4.83671">
        <ele>233</ele>
        <time>2012-01-06T18:42:20Z</time>
      </trkpt>
      <trkpt lat="45.78124" lon="4.83684">
        <ele>232</ele>
        <time>2012-01-06T18:42:25Z</time>
      </trkpt>
      <trkpt lat="45.78129" lon="4.83688">
        <ele>231</ele>
        <time>2012-01-06T18:42:27Z</time>
      </trkpt>
      <trkpt lat="45.78137" lon="4.83695">
        <ele>231</ele>
        <time>2012-01-06T18:42:31Z</time>
      </trkpt>
      <trkpt lat="45.78144" lon="4.83702">
        <ele>230</ele>
        <time>2012-01-06T18:42:34Z</time>
      </trkpt>
      <trkpt lat="45.7815" lon="4.83707">
        <ele>230</ele>
        <time>2012-01-06T18:42:36Z</time>
      </trkpt>
      <trkpt lat="45.78154" lon="4.83712">
        <ele>230</ele>
        <time>2012-01-06T18:42:39Z</time>
      </trkpt>
      <trkpt lat="45.78153" lon="4.83715">
        <ele>230</ele>
        <time>2012-01-06T18:42:40Z</time>
      </trkpt>
      <trkpt lat="45.78148" lon="4.8372">
        <ele>230</ele>
        <time>2012-01-06T18:42:42Z</time>
      </trkpt>
      <trkpt lat="45.78144" lon="4.83725">
        <ele>230</ele>
        <time>2012-01-06T18:42:44Z</time>
      </trkpt>
      <trkpt lat="45.78141" lon="4.83727">
        <ele>230</ele>
        <time>2012-01-06T18:42:45Z</time>
      </trkpt>
      <trkpt lat="45.78133" lon="4.83737">
        <ele>230</ele>
        <time>2012-01-06T18:42:50Z</time>
      </trkpt>
      <trkpt lat="45.78121" lon="4.83749">
        <ele>230</ele>
        <time>2012-01-06T18:42:55Z</time>
      </trkpt>
      <trkpt lat="45.78118" lon="4.83754">
        <ele>224</ele>
        <time>2012-01-06T18:42:57Z</time>
      </trkpt>
      <trkpt lat="45.78113" lon="4.83763">
        <ele>224</ele>
        <time>2012-01-06T18:43:00Z</time>
      </trkpt>
      <trkpt lat="45.78105" lon="4.83771">
        <ele>224</ele>
        <time>2012-01-06T18:43:04Z</time>
      </trkpt>
      <trkpt lat="45.78102" lon="4.83777">
        <ele>224</ele>
        <time>2012-01-06T18:43:06Z</time>
      </trkpt>
      <trkpt lat="45.78093" lon="4.83789">
        <ele>223</ele>
        <time>2012-01-06T18:43:11Z</time>
      </trkpt>
      <trkpt lat="45.78091" lon="4.83792">
        <ele>222</ele>
        <time>2012-01-06T18:43:12Z</time>
      </trkpt>
      <trkpt lat="45.7808" lon="4.83803">
        <ele>227</ele>
        <time>2012-01-06T18:43:17Z</time>
      </trkpt>
      <trkpt lat="45.78078" lon="4.83806">
        <ele>227</ele>
        <time>2012-01-06T18:43:18Z</time>
      </trkpt>
      <trkpt lat="45.78072" lon="4.83816">
        <ele>225</ele>
        <time>2012-01-06T18:43:21Z</time>
      </trkpt>
      <trkpt lat="45.78065" lon="4.83826">
        <ele>225</ele>
        <time>2012-01-06T18:43:24Z</time>
      </trkpt>
      <trkpt lat="45.78056" lon="4.83835">
        <ele>217</ele>
        <time>2012-01-06T18:43:28Z</time>
      </trkpt>
      <trkpt lat="45.78049" lon="4.83842">
        <ele>218</ele>
        <time>2012-01-06T18:43:31Z</time>
      </trkpt>
      <trkpt lat="45.78045" lon="4.83847">
        <ele>218</ele>
        <time>2012-01-06T18:43:33Z</time>
      </trkpt>
      <trkpt lat="45.78034" lon="4.83857">
        <ele>218</ele>
        <time>2012-01-06T18:43:38Z</time>
      </trkpt>
      <trkpt lat="45.78031" lon="4.83859">
        <ele>218</ele>
        <time>2012-01-06T18:43:39Z</time>
      </trkpt>
      <trkpt lat="45.78019" lon="4.83873">
        <ele>217</ele>
        <time>2012-01-06T18:43:45Z</time>
      </trkpt>
      <trkpt lat="45.78017" lon="4.83875">
        <ele>217</ele>
        <time>2012-01-06T18:43:46Z</time>
      </trkpt>
      <trkpt lat="45.78008" lon="4.83886">
        <ele>215</ele>
        <time>2012-01-06T18:43:51Z</time>
      </trkpt>
      <trkpt lat="45.78005" lon="4.83891">
        <ele>214</ele>
        <time>2012-01-06T18:43:54Z</time>
      </trkpt>
      <trkpt lat="45.78003" lon="4.83892">
        <ele>213</ele>
        <time>2012-01-06T18:43:56Z</time>
      </trkpt>
      <trkpt lat="45.78002" lon="4.83893">
        <ele>213</ele>
        <time>2012-01-06T18:43:57Z</time>
      </trkpt>
      <trkpt lat="45.77997" lon="4.83899">
        <ele>216</ele>
        <time>2012-01-06T18:44:01Z</time>
      </trkpt>
      <trkpt lat="45.77997" lon="4.83899">
        <ele>216</ele>
        <time>2012-01-06T18:44:02Z</time>
      </trkpt>
      <trkpt lat="45.77993" lon="4.83905">
        <ele>215</ele>
        <time>2012-01-06T18:44:08Z</time>
      </trkpt>
      <trkpt lat="45.77987" lon="4.83908">
        <ele>215</ele>
        <time>2012-01-06T18:44:14Z</time>
      </trkpt>
      <trkpt lat="45.77985" lon="4.83912">
        <ele>215</ele>
        <time>2012-01-06T18:44:15Z</time>
      </trkpt>
      <trkpt lat="45.77979" lon="4.83923">
        <ele>205</ele>
        <time>2012-01-06T18:44:20Z</time>
      </trkpt>
      <trkpt lat="45.77975" lon="4.83926">
        <ele>205</ele>
        <time>2012-01-06T18:44:25Z</time>
      </trkpt>
      <trkpt lat="45.77975" lon="4.83928">
        <ele>205</ele>
        <time>2012-01-06T18:44:26Z</time>
      </trkpt>
      <trkpt lat="45.77969" lon="4.83941">
        <ele>204</ele>
        <time>2012-01-06T18:44:31Z</time>
      </trkpt>
      <trkpt lat="45.77966" lon="4.83948">
        <ele>203</ele>
        <time>2012-01-06T18:44:33Z</time>
      </trkpt>
      <trkpt lat="45.77967" lon="4.83947">
        <ele>203</ele>
        <time>2012-01-06T18:44:35Z</time>
      </trkpt>
      <trkpt lat="45.77967" lon="4.83947">
        <ele>203</ele>
        <time>2012-01-06T18:44:36Z</time>
      </trkpt>
      <trkpt lat="45.77965" lon="4.83948">
        <ele>203</ele>
        <time>2012-01-06T18:44:40Z</time>
      </trkpt>
      <trkpt lat="45.77966" lon="4.83938">
        <ele>204</ele>
        <time>2012-01-06T18:44:59Z</time>
      </trkpt>
      <trkpt lat="45.77965" lon="4.83937">
        <ele>204</ele>
        <time>2012-01-06T18:45:06Z</time>
      </trkpt>
      <trkpt lat="45.77961" lon="4.83941">
        <ele>204</ele>
        <time>2012-01-06T18:45:09Z</time>
      </trkpt>
      <trkpt lat="45.77957" lon="4.83947">
        <ele>203</ele>
        <time>2012-01-06T18:45:11Z</time>
      </trkpt>
      <trkpt lat="45.77951" lon="4.83953">
        <ele>203</ele>
        <time>2012-01-06T18:45:14Z</time>
      </trkpt>
      <trkpt lat="45.7794" lon="4.83962">
        <ele>202</ele>
        <time>2012-01-06T18:45:19Z</time>
      </trkpt>
      <trkpt lat="45.77938" lon="4.83964">
        <ele>202</ele>
        <time>2012-01-06T18:45:20Z</time>
      </trkpt>
      <trkpt lat="45.77929" lon="4.83976">
        <ele>199</ele>
        <time>2012-01-06T18:45:25Z</time>
      </trkpt>
      <trkpt lat="45.77925" lon="4.83982">
        <ele>198</ele>
        <time>2012-01-06T18:45:27Z</time>
      </trkpt>
      <trkpt lat="45.77921" lon="4.83988">
        <ele>196</ele>
        <time>2012-01-06T18:45:29Z</time>
      </trkpt>
      <trkpt lat="45.77912" lon="4.83997">
        <ele>196</ele>
        <time>2012-01-06T18:45:33Z</time>
      </trkpt>
      <trkpt lat="45.7791" lon="4.83999">
        <ele>196</ele>
        <time>2012-01-06T18:45:34Z</time>
      </trkpt>
      <trkpt lat="45.77901" lon="4.84007">
        <ele>191</ele>
        <time>2012-01-06T18:45:38Z</time>
      </trkpt>
      <trkpt lat="45.77893" lon="4.84014">
        <ele>191</ele>
        <time>2012-01-06T18:45:42Z</time>
      </trkpt>
      <trkpt lat="45.77889" lon="4.84018">
        <ele>191</ele>
        <time>2012-01-06T18:45:44Z</time>
      </trkpt>
      <trkpt lat="45.77879" lon="4.84026">
        <ele>191</ele>
        <time>2012-01-06T18:45:50Z</time>
      </trkpt>
      <trkpt lat="45.77877" lon="4.84025">
        <ele>191</ele>
        <time>2012-01-06T18:45:52Z</time>
      </trkpt>
      <trkpt lat="45.77876" lon="4.84023">
        <ele>191</ele>
        <time>2012-01-06T18:45:55Z</time>
      </trkpt>
      <trkpt lat="45.77876" lon="4.84018">
        <ele>192</ele>
        <time>2012-01-06T18:46:00Z</time>
      </trkpt>
      <trkpt lat="45.77877" lon="4.84016">
        <ele>192</ele>
        <time>2012-01-06T18:46:03Z</time>
      </trkpt>
      <trkpt lat="45.77874" lon="4.84013">
        <ele>192</ele>
        <time>2012-01-06T18:46:06Z</time>
      </trkpt>
      <trkpt lat="45.77873" lon="4.84007">
        <ele>193</ele>
        <time>2012-01-06T18:46:13Z</time>
      </trkpt>
      <trkpt lat="45.77869" lon="4.84003">
        <ele>193</ele>
        <time>2012-01-06T18:46:18Z</time>
      </trkpt>
      <trkpt lat="45.77863" lon="4.84001">
        <ele>194</ele>
        <time>2012-01-06T18:46:23Z</time>
      </trkpt>
      <trkpt lat="45.77859" lon="4.84001">
        <ele>195</ele>
        <time>2012-01-06T18:46:26Z</time>
      </trkpt>
      <trkpt lat="45.77857" lon="4.84">
        <ele>207</ele>
        <time>2012-01-06T18:46:29Z</time>
      </trkpt>
      <trkpt lat="45.77851" lon="4.83996">
        <ele>207</ele>
        <time>2012-01-06T18:46:32Z</time>
      </trkpt>
      <trkpt lat="45.77844" lon="4.83992">
        <ele>207</ele>
        <time>2012-01-06T18:46:35Z</time>
      </trkpt>
      <trkpt lat="45.77833" lon="4.83986">
        <ele>208</ele>
        <time>2012-01-06T18:46:42Z</time>
      </trkpt>
      <trkpt lat="45.77833" lon="4.83986">
        <ele>208</ele>
        <time>2012-01-06T18:46:43Z</time>
      </trkpt>
      <trkpt lat="45.77828" lon="4.83986">
        <ele>209</ele>
        <time>2012-01-06T18:46:46Z</time>
      </trkpt>
      <trkpt lat="45.77823" lon="4.83984">
        <ele>209</ele>
        <time>2012-01-06T18:46:49Z</time>
      </trkpt>
      <trkpt lat="45.77822" lon="4.83984">
        <ele>209</ele>
        <time>2012-01-06T18:46:50Z</time>
      </trkpt>
      <trkpt lat="45.77815" lon="4.83983">
        <ele>209</ele>
        <time>2012-01-06T18:46:56Z</time>
      </trkpt>
      <trkpt lat="45.77814" lon="4.83979">
        <ele>210</ele>
        <time>2012-01-06T18:46:59Z</time>
      </trkpt>
      <trkpt lat="45.77812" lon="4.83974">
        <ele>211</ele>
        <time>2012-01-06T18:47:02Z</time>
      </trkpt>
      <trkpt lat="45.77806" lon="4.83966">
        <ele>212</ele>
        <time>2012-01-06T18:47:08Z</time>
      </trkpt>
      <trkpt lat="45.77804" lon="4.83964">
        <ele>212</ele>
        <time>2012-01-06T18:47:10Z</time>
      </trkpt>
      <trkpt lat="45.77799" lon="4.83958">
        <ele>213</ele>
        <time>2012-01-06T18:47:15Z</time>
      </trkpt>
      <trkpt lat="45.7779" lon="4.83947">
        <ele>214</ele>
        <time>2012-01-06T18:47:23Z</time>
      </trkpt>
      <trkpt lat="45.77784" lon="4.83938">
        <ele>215</ele>
        <time>2012-01-06T18:47:30Z</time>
      </trkpt>
      <trkpt lat="45.77779" lon="4.83928">
        <ele>217</ele>
        <time>2012-01-06T18:47:37Z</time>
      </trkpt>
      <trkpt lat="45.77778" lon="4.83926">
        <ele>217</ele>
        <time>2012-01-06T18:47:39Z</time>
      </trkpt>
      <trkpt lat="45.77775" lon="4.83921">
        <ele>218</ele>
        <time>2012-01-06T18:47:43Z</time>
      </trkpt>
      <trkpt lat="45.77768" lon="4.83912">
        <ele>229</ele>
        <time>2012-01-06T18:47:50Z</time>
      </trkpt>
      <trkpt lat="45.77766" lon="4.83907">
        <ele>229</ele>
        <time>2012-01-06T18:47:53Z</time>
      </trkpt>
      <trkpt lat="45.77767" lon="4.83902">
        <ele>230</ele>
        <time>2012-01-06T18:47:56Z</time>
      </trkpt>
      <trkpt lat="45.77766" lon="4.839">
        <ele>230</ele>
        <time>2012-01-06T18:47:58Z</time>
      </trkpt>
      <trkpt lat="45.77765" lon="4.83897">
        <ele>230</ele>
        <time>2012-01-06T18:48:01Z</time>
      </trkpt>
      <trkpt lat="45.77759" lon="4.83889">
        <ele>231</ele>
        <time>2012-01-06T18:48:09Z</time>
      </trkpt>
      <trkpt lat="45.77758" lon="4.83888">
        <ele>231</ele>
        <time>2012-01-06T18:48:10Z</time>
      </trkpt>
      <trkpt lat="45.77758" lon="4.83884">
        <ele>232</ele>
        <time>2012-01-06T18:48:15Z</time>
      </trkpt>
      <trkpt lat="45.77758" lon="4.83884">
        <ele>232</ele>
        <time>2012-01-06T18:48:16Z</time>
      </trkpt>
      <trkpt lat="45.7776" lon="4.83879">
        <ele>233</ele>
        <time>2012-01-06T18:48:25Z</time>
      </trkpt>
      <trkpt lat="45.77757" lon="4.83875">
        <ele>233</ele>
        <time>2012-01-06T18:48:46Z</time>
      </trkpt>
      <trkpt lat="45.77754" lon="4.83873">
        <ele>233</ele>
        <time>2012-01-06T18:48:52Z</time>
      </trkpt>
      <trkpt lat="45.77753" lon="4.83876">
        <ele>233</ele>
        <time>2012-01-06T18:48:58Z</time>
      </trkpt>
      <trkpt lat="45.77754" lon="4.83877">
        <ele>233</ele>
        <time>2012-01-06T18:49:12Z</time>
      </trkpt>
      <trkpt lat="45.77759" lon="4.83877">
        <ele>233</ele>
        <time>2012-01-06T18:49:23Z</time>
      </trkpt>
      <trkpt lat="45.77763" lon="4.83879">
        <ele>233</ele>
        <time>2012-01-06T18:49:29Z</time>
      </trkpt>
      <trkpt lat="45.77763" lon="4.83882">
        <ele>232</ele>
        <time>2012-01-06T18:49:35Z</time>
      </trkpt>
      <trkpt lat="45.77762" lon="4.83883">
        <ele>232</ele>
        <time>2012-01-06T18:49:37Z</time>
      </trkpt>
      <trkpt lat="45.77758" lon="4.83881">
        <ele>232</ele>
        <time>2012-01-06T18:49:41Z</time>
      </trkpt>
      <trkpt lat="45.77757" lon="4.83878">
        <ele>233</ele>
        <time>2012-01-06T18:49:49Z</time>
      </trkpt>
      <trkpt lat="45.77756" lon="4.83877">
        <ele>233</ele>
        <time>2012-01-06T18:49:54Z</time>
      </trkpt>
      <trkpt lat="45.77756" lon="4.83879">
        <ele>233</ele>
        <time>2012-01-06T18:49:57Z</time>
      </trkpt>
      <trkpt lat="45.77756" lon="4.83881">
        <ele>232</ele>
        <time>2012-01-06T18:50:00Z</time>
      </trkpt>
      <trkpt lat="45.77758" lon="4.83882">
        <ele>232</ele>
        <time>2012-01-06T18:50:21Z</time>
      </trkpt>
      <trkpt lat="45.77759" lon="4.8388">
        <ele>232</ele>
        <time>2012-01-06T18:50:31Z</time>
      </trkpt>
      <trkpt lat="45.77759" lon="4.83879">
        <ele>233</ele>
        <time>2012-01-06T18:50:33Z</time>
      </trkpt>
      <trkpt lat="45.77756" lon="4.83877">
        <ele>233</ele>
        <time>2012-01-06T18:50:36Z</time>
      </trkpt>
      <trkpt lat="45.77755" lon="4.83877">
        <ele>233</ele>
        <time>2012-01-06T18:50:38Z</time>
      </trkpt>
      <trkpt lat="45.77751" lon="4.83876">
        <ele>233</ele>
        <time>2012-01-06T18:50:43Z</time>
      </trkpt>
      <trkpt lat="45.77749" lon="4.83875">
        <ele>229</ele>
        <time>2012-01-06T18:50:45Z</time>
      </trkpt>
      <trkpt lat="45.77745" lon="4.83873">
        <ele>229</ele>
        <time>2012-01-06T18:50:48Z</time>
      </trkpt>
      <trkpt lat="45.77744" lon="4.83872">
        <ele>229</ele>
        <time>2012-01-06T18:50:49Z</time>
      </trkpt>
      <trkpt lat="45.77735" lon="4.83868">
        <ele>230</ele>
        <time>2012-01-06T18:50:55Z</time>
      </trkpt>
      <trkpt lat="45.77731" lon="4.83865">
        <ele>230</ele>
        <time>2012-01-06T18:50:57Z</time>
      </trkpt>
      <trkpt lat="45.77724" lon="4.83861">
        <ele>230</ele>
        <time>2012-01-06T18:51:00Z</time>
      </trkpt>
      <trkpt lat="45.77714" lon="4.83851">
        <ele>230</ele>
        <time>2012-01-06T18:51:05Z</time>
      </trkpt>
      <trkpt lat="45.77704" lon="4.83841">
        <ele>230</ele>
        <time>2012-01-06T18:51:10Z</time>
      </trkpt>
      <trkpt lat="45.777" lon="4.83833">
        <ele>240</ele>
        <time>2012-01-06T18:51:13Z</time>
      </trkpt>
      <trkpt lat="45.77699" lon="4.83826">
        <ele>240</ele>
        <time>2012-01-06T18:51:15Z</time>
      </trkpt>
      <trkpt lat="45.77692" lon="4.83805">
        <ele>241</ele>
        <time>2012-01-06T18:51:21Z</time>
      </trkpt>
      <trkpt lat="45.77686" lon="4.83785">
        <ele>242</ele>
        <time>2012-01-06T18:51:27Z</time>
      </trkpt>
      <trkpt lat="45.77684" lon="4.83783">
        <ele>243</ele>
        <time>2012-01-06T18:51:28Z</time>
      </trkpt>
      <trkpt lat="45.77677" lon="4.83778">
        <ele>243</ele>
        <time>2012-01-06T18:51:31Z</time>
      </trkpt>
      <trkpt lat="45.77671" lon="4.83763">
        <ele>245</ele>
        <time>2012-01-06T18:51:36Z</time>
      </trkpt>
      <trkpt lat="45.77667" lon="4.83759">
        <ele>245</ele>
        <time>2012-01-06T18:51:38Z</time>
      </trkpt>
      <trkpt lat="45.77659" lon="4.83742">
        <ele>244</ele>
        <time>2012-01-06T18:51:44Z</time>
      </trkpt>
      <trkpt lat="45.77652" lon="4.83727">
        <ele>242</ele>
        <time>2012-01-06T18:51:49Z</time>
      </trkpt>
      <trkpt lat="45.7765" lon="4.83716">
        <ele>241</ele>
        <time>2012-01-06T18:51:52Z</time>
      </trkpt>
      <trkpt lat="45.7765" lon="4.83705">
        <ele>241</ele>
        <time>2012-01-06T18:51:55Z</time>
      </trkpt>
      <trkpt lat="45.77648" lon="4.83695">
        <ele>242</ele>
        <time>2012-01-06T18:51:59Z</time>
      </trkpt>
      <trkpt lat="45.77648" lon="4.83692">
        <ele>242</ele>
        <time>2012-01-06T18:52:00Z</time>
      </trkpt>
      <trkpt lat="45.77648" lon="4.83689">
        <ele>242</ele>
        <time>2012-01-06T18:52:01Z</time>
      </trkpt>
      <trkpt lat="45.77647" lon="4.8367">
        <ele>243</ele>
        <time>2012-01-06T18:52:06Z</time>
      </trkpt>
      <trkpt lat="45.7765" lon="4.8366">
        <ele>247</ele>
        <time>2012-01-06T18:52:09Z</time>
      </trkpt>
      <trkpt lat="45.7765" lon="4.83653">
        <ele>246</ele>
        <time>2012-01-06T18:52:11Z</time>
      </trkpt>
      <trkpt lat="45.77647" lon="4.83638">
        <ele>246</ele>
        <time>2012-01-06T18:52:16Z</time>
      </trkpt>
      <trkpt lat="45.77647" lon="4.83633">
        <ele>247</ele>
        <time>2012-01-06T18:52:17Z</time>
      </trkpt>
      <trkpt lat="45.77645" lon="4.83622">
        <ele>247</ele>
        <time>2012-01-06T18:52:20Z</time>
      </trkpt>
      <trkpt lat="45.77645" lon="4.83609">
        <ele>247</ele>
        <time>2012-01-06T18:52:24Z</time>
      </trkpt>
      <trkpt lat="45.77644" lon="4.83607">
        <ele>248</ele>
        <time>2012-01-06T18:52:25Z</time>
      </trkpt>
      <trkpt lat="45.77644" lon="4.83606">
        <ele>248</ele>
        <time>2012-01-06T18:52:26Z</time>
      </trkpt>
      <trkpt lat="45.77638" lon="4.83603">
        <ele>247</ele>
        <time>2012-01-06T18:52:29Z</time>
      </trkpt>
      <trkpt lat="45.77635" lon="4.83602">
        <ele>247</ele>
        <time>2012-01-06T18:52:30Z</time>
      </trkpt>
      <trkpt lat="45.77627" lon="4.836">
        <ele>247</ele>
        <time>2012-01-06T18:52:35Z</time>
      </trkpt>
      <trkpt lat="45.77625" lon="4.836">
        <ele>247</ele>
        <time>2012-01-06T18:52:36Z</time>
      </trkpt>
      <trkpt lat="45.77618" lon="4.83602">
        <ele>246</ele>
        <time>2012-01-06T18:52:41Z</time>
      </trkpt>
      <trkpt lat="45.77609" lon="4.83599">
        <ele>246</ele>
        <time>2012-01-06T18:52:47Z</time>
      </trkpt>
      <trkpt lat="45.77606" lon="4.836">
        <ele>246</ele>
        <time>2012-01-06T18:52:48Z</time>
      </trkpt>
      <trkpt lat="45.77597" lon="4.83604">
        <ele>246</ele>
        <time>2012-01-06T18:52:51Z</time>
      </trkpt>
      <trkpt lat="45.77595" lon="4.83605">
        <ele>246</ele>
        <time>2012-01-06T18:52:55Z</time>
      </trkpt>
      <trkpt lat="45.77589" lon="4.83601">
        <ele>246</ele>
        <time>2012-01-06T18:52:58Z</time>
      </trkpt>
      <trkpt lat="45.77587" lon="4.836">
        <ele>246</ele>
        <time>2012-01-06T18:52:59Z</time>
      </trkpt>
      <trkpt lat="45.77585" lon="4.836">
        <ele>246</ele>
        <time>2012-01-06T18:53:00Z</time>
      </trkpt>
      <trkpt lat="45.77574" lon="4.836">
        <ele>243</ele>
        <time>2012-01-06T18:53:04Z</time>
      </trkpt>
      <trkpt lat="45.77571" lon="4.83599">
        <ele>243</ele>
        <time>2012-01-06T18:53:05Z</time>
      </trkpt>
      <trkpt lat="45.77557" lon="4.83596">
        <ele>242</ele>
        <time>2012-01-06T18:53:10Z</time>
      </trkpt>
      <trkpt lat="45.77553" lon="4.83595">
        <ele>242</ele>
        <time>2012-01-06T18:53:11Z</time>
      </trkpt>
      <trkpt lat="45.77547" lon="4.83593">
        <ele>242</ele>
        <time>2012-01-06T18:53:13Z</time>
      </trkpt>
      <trkpt lat="45.77541" lon="4.83591">
        <ele>242</ele>
        <time>2012-01-06T18:53:15Z</time>
      </trkpt>
      <trkpt lat="45.77532" lon="4.83589">
        <ele>242</ele>
        <time>2012-01-06T18:53:17Z</time>
      </trkpt>
      <trkpt lat="45.77518" lon="4.83588">
        <ele>243</ele>
        <time>2012-01-06T18:53:22Z</time>
      </trkpt>
      <trkpt lat="45.77511" lon="4.83586">
        <ele>243</ele>
        <time>2012-01-06T18:53:25Z</time>
      </trkpt>
      <trkpt lat="45.77504" lon="4.83585">
        <ele>244</ele>
        <time>2012-01-06T18:53:27Z</time>
      </trkpt>
      <trkpt lat="45.77492" lon="4.83583">
        <ele>245</ele>
        <time>2012-01-06T18:53:32Z</time>
      </trkpt>
      <trkpt lat="45.77482" lon="4.83586">
        <ele>240</ele>
        <time>2012-01-06T18:53:36Z</time>
      </trkpt>
      <trkpt lat="45.7748" lon="4.83586">
        <ele>239</ele>
        <time>2012-01-06T18:53:38Z</time>
      </trkpt>
      <trkpt lat="45.77478" lon="4.83588">
        <ele>239</ele>
        <time>2012-01-06T18:53:41Z</time>
      </trkpt>
      <trkpt lat="45.77477" lon="4.83588">
        <ele>239</ele>
        <time>2012-01-06T18:53:42Z</time>
      </trkpt>
      <trkpt lat="45.77476" lon="4.83589">
        <ele>239</ele>
        <time>2012-01-06T18:53:43Z</time>
      </trkpt>
      <trkpt lat="45.77479" lon="4.83591">
        <ele>239</ele>
        <time>2012-01-06T18:53:46Z</time>
      </trkpt>
      <trkpt lat="45.77479" lon="4.83591">
        <ele>239</ele>
        <time>2012-01-06T18:53:55Z</time>
      </trkpt>
      <trkpt lat="45.77477" lon="4.83601">
        <ele>238</ele>
        <time>2012-01-06T18:54:00Z</time>
      </trkpt>
      <trkpt lat="45.77478" lon="4.83614">
        <ele>236</ele>
        <time>2012-01-06T18:54:03Z</time>
      </trkpt>
      <trkpt lat="45.77478" lon="4.83628">
        <ele>235</ele>
        <time>2012-01-06T18:54:07Z</time>
      </trkpt>
      <trkpt lat="45.77476" lon="4.8363">
        <ele>234</ele>
        <time>2012-01-06T18:54:08Z</time>
      </trkpt>
      <trkpt lat="45.77475" lon="4.8363">
        <ele>234</ele>
        <time>2012-01-06T18:54:10Z</time>
      </trkpt>
      <trkpt lat="45.77475" lon="4.83631">
        <ele>234</ele>
        <time>2012-01-06T18:54:11Z</time>
      </trkpt>
      <trkpt lat="45.77479" lon="4.83632">
        <ele>234</ele>
        <time>2012-01-06T18:54:15Z</time>
      </trkpt>
      <trkpt lat="45.7748" lon="4.83632">
        <ele>234</ele>
        <time>2012-01-06T18:54:16Z</time>
      </trkpt>
      <trkpt lat="45.77482" lon="4.83632">
        <ele>234</ele>
        <time>2012-01-06T18:54:18Z</time>
      </trkpt>
      <trkpt lat="45.77487" lon="4.83633">
        <ele>235</ele>
        <time>2012-01-06T18:54:21Z</time>
      </trkpt>
      <trkpt lat="45.77486" lon="4.8364">
        <ele>234</ele>
        <time>2012-01-06T18:54:27Z</time>
      </trkpt>
      <trkpt lat="45.77486" lon="4.83643">
        <ele>234</ele>
        <time>2012-01-06T18:54:28Z</time>
      </trkpt>
      <trkpt lat="45.77485" lon="4.8365">
        <ele>233</ele>
        <time>2012-01-06T18:54:30Z</time>
      </trkpt>
      <trkpt lat="45.77484" lon="4.83657">
        <ele>233</ele>
        <time>2012-01-06T18:54:32Z</time>
      </trkpt>
      <trkpt lat="45.77479" lon="4.83672">
        <ele>223</ele>
        <time>2012-01-06T18:54:37Z</time>
      </trkpt>
      <trkpt lat="45.77477" lon="4.83676">
        <ele>222</ele>
        <time>2012-01-06T18:54:39Z</time>
      </trkpt>
      <trkpt lat="45.77477" lon="4.83677">
        <ele>221</ele>
        <time>2012-01-06T18:54:40Z</time>
      </trkpt>
      <trkpt lat="45.77473" lon="4.83686">
        <ele>219</ele>
        <time>2012-01-06T18:54:45Z</time>
      </trkpt>
      <trkpt lat="45.77465" lon="4.83698">
        <ele>217</ele>
        <time>2012-01-06T18:54:49Z</time>
      </trkpt>
      <trkpt lat="45.77461" lon="4.83703">
        <ele>216</ele>
        <time>2012-01-06T18:54:52Z</time>
      </trkpt>
      <trkpt lat="45.7746" lon="4.83705">
        <ele>216</ele>
        <time>2012-01-06T18:54:53Z</time>
      </trkpt>
      <trkpt lat="45.77457" lon="4.83708">
        <ele>215</ele>
        <time>2012-01-06T18:54:55Z</time>
      </trkpt>
      <trkpt lat="45.77451" lon="4.83711">
        <ele>214</ele>
        <time>2012-01-06T18:54:58Z</time>
      </trkpt>
      <trkpt lat="45.77449" lon="4.83711">
        <ele>214</ele>
        <time>2012-01-06T18:54:59Z</time>
      </trkpt>
      <trkpt lat="45.77447" lon="4.83712">
        <ele>214</ele>
        <time>2012-01-06T18:55:00Z</time>
      </trkpt>
      <trkpt lat="45.77445" lon="4.83714">
        <ele>213</ele>
        <time>2012-01-06T18:55:02Z</time>
      </trkpt>
      <trkpt lat="45.77443" lon="4.83715">
        <ele>213</ele>
        <time>2012-01-06T18:55:03Z</time>
      </trkpt>
      <trkpt lat="45.77435" lon="4.83718">
        <ele>212</ele>
        <time>2012-01-06T18:55:09Z</time>
      </trkpt>
      <trkpt lat="45.77431" lon="4.8372">
        <ele>211</ele>
        <time>2012-01-06T18:55:11Z</time>
      </trkpt>
      <trkpt lat="45.77427" lon="4.83724">
        <ele>210</ele>
        <time>2012-01-06T18:55:14Z</time>
      </trkpt>
      <trkpt lat="45.77427" lon="4.83732">
        <ele>208</ele>
        <time>2012-01-06T18:55:20Z</time>
      </trkpt>
      <trkpt lat="45.77433" lon="4.83737">
        <ele>208</ele>
        <time>2012-01-06T18:55:24Z</time>
      </trkpt>
      <trkpt lat="45.77435" lon="4.83738">
        <ele>208</ele>
        <time>2012-01-06T18:55:25Z</time>
      </trkpt>
      <trkpt lat="45.77434" lon="4.83743">
        <ele>207</ele>
        <time>2012-01-06T18:55:28Z</time>
      </trkpt>
      <trkpt lat="45.7743" lon="4.83744">
        <ele>206</ele>
        <time>2012-01-06T18:55:30Z</time>
      </trkpt>
      <trkpt lat="45.77422" lon="4.83744">
        <ele>203</ele>
        <time>2012-01-06T18:55:35Z</time>
      </trkpt>
      <trkpt lat="45.77421" lon="4.83745">
        <ele>202</ele>
        <time>2012-01-06T18:55:36Z</time>
      </trkpt>
      <trkpt lat="45.77421" lon="4.8375">
        <ele>198</ele>
        <time>2012-01-06T18:55:39Z</time>
      </trkpt>
      <trkpt lat="45.77422" lon="4.83752">
        <ele>198</ele>
        <time>2012-01-06T18:55:40Z</time>
      </trkpt>
      <trkpt lat="45.77423" lon="4.83753">
        <ele>197</ele>
        <time>2012-01-06T18:55:41Z</time>
      </trkpt>
      <trkpt lat="45.77426" lon="4.83755">
        <ele>197</ele>
        <time>2012-01-06T18:55:43Z</time>
      </trkpt>
      <trkpt lat="45.77428" lon="4.83756">
        <ele>197</ele>
        <time>2012-01-06T18:55:45Z</time>
      </trkpt>
      <trkpt lat="45.77426" lon="4.83758">
        <ele>197</ele>
        <time>2012-01-06T18:55:47Z</time>
      </trkpt>
      <trkpt lat="45.77424" lon="4.83762">
        <ele>197</ele>
        <time>2012-01-06T18:55:49Z</time>
      </trkpt>
      <trkpt lat="45.77423" lon="4.83765">
        <ele>196</ele>
        <time>2012-01-06T18:55:50Z</time>
      </trkpt>
      <trkpt lat="45.77422" lon="4.83765">
        <ele>197</ele>
        <time>2012-01-06T18:55:53Z</time>
      </trkpt>
      <trkpt lat="45.77417" lon="4.83768">
        <ele>196</ele>
        <time>2012-01-06T18:56:00Z</time>
      </trkpt>
      <trkpt lat="45.77412" lon="4.83773">
        <ele>190</ele>
        <time>2012-01-06T18:56:10Z</time>
      </trkpt>
      <trkpt lat="45.77413" lon="4.83774">
        <ele>190</ele>
        <time>2012-01-06T18:56:13Z</time>
      </trkpt>
      <trkpt lat="45.77417" lon="4.83773">
        <ele>196</ele>
        <time>2012-01-06T18:56:17Z</time>
      </trkpt>
      <trkpt lat="45.7742" lon="4.83772">
        <ele>196</ele>
        <time>2012-01-06T18:56:20Z</time>
      </trkpt>
      <trkpt lat="45.77417" lon="4.8377">
        <ele>196</ele>
        <time>2012-01-06T18:56:33Z</time>
      </trkpt>
      <trkpt lat="45.77414" lon="4.83777">
        <ele>189</ele>
        <time>2012-01-06T18:56:39Z</time>
      </trkpt>
      <trkpt lat="45.77408" lon="4.83791">
        <ele>187</ele>
        <time>2012-01-06T18:56:46Z</time>
      </trkpt>
      <trkpt lat="45.774" lon="4.83813">
        <ele>184</ele>
        <time>2012-01-06T18:56:53Z</time>
      </trkpt>
      <trkpt lat="45.77397" lon="4.83815">
        <ele>184</ele>
        <time>2012-01-06T18:56:54Z</time>
      </trkpt>
      <trkpt lat="45.77393" lon="4.83823">
        <ele>184</ele>
        <time>2012-01-06T18:56:57Z</time>
      </trkpt>
      <trkpt lat="45.77387" lon="4.83816">
        <ele>184</ele>
        <time>2012-01-06T18:57:00Z</time>
      </trkpt>
      <trkpt lat="45.77385" lon="4.83812">
        <ele>184</ele>
        <time>2012-01-06T18:57:01Z</time>
      </trkpt>
      <trkpt lat="45.77375" lon="4.83798">
        <ele>184</ele>
        <time>2012-01-06T18:57:06Z</time>
      </trkpt>
      <trkpt lat="45.77369" lon="4.83796">
        <ele>184</ele>
        <time>2012-01-06T18:57:09Z</time>
      </trkpt>
      <trkpt lat="45.77366" lon="4.83791">
        <ele>185</ele>
        <time>2012-01-06T18:57:11Z</time>
      </trkpt>
      <trkpt lat="45.77366" lon="4.83785">
        <ele>185</ele>
        <time>2012-01-06T18:57:13Z</time>
      </trkpt>
      <trkpt lat="45.77367" lon="4.83781">
        <ele>185</ele>
        <time>2012-01-06T18:57:15Z</time>
      </trkpt>
      <trkpt lat="45.77368" lon="4.83779">
        <ele>186</ele>
        <time>2012-01-06T18:57:16Z</time>
      </trkpt>
      <trkpt lat="45.77369" lon="4.8377">
        <ele>186</ele>
        <time>2012-01-06T18:57:20Z</time>
      </trkpt>
      <trkpt lat="45.77372" lon="4.8376">
        <ele>187</ele>
        <time>2012-01-06T18:57:25Z</time>
      </trkpt>
      <trkpt lat="45.77373" lon="4.83759">
        <ele>187</ele>
        <time>2012-01-06T18:57:26Z</time>
      </trkpt>
      <trkpt lat="45.77374" lon="4.83754">
        <ele>187</ele>
        <time>2012-01-06T18:57:30Z</time>
      </trkpt>
      <trkpt lat="45.77375" lon="4.83753">
        <ele>188</ele>
        <time>2012-01-06T18:57:31Z</time>
      </trkpt>
      <trkpt lat="45.7738" lon="4.83751">
        <ele>188</ele>
        <time>2012-01-06T18:57:35Z</time>
      </trkpt>
      <trkpt lat="45.77381" lon="4.8375">
        <ele>188</ele>
        <time>2012-01-06T18:57:36Z</time>
      </trkpt>
      <trkpt lat="45.77382" lon="4.83743">
        <ele>199</ele>
        <time>2012-01-06T18:57:41Z</time>
      </trkpt>
      <trkpt lat="45.77384" lon="4.83743">
        <ele>199</ele>
        <time>2012-01-06T18:57:42Z</time>
      </trkpt>
      <trkpt lat="45.77385" lon="4.83739">
        <ele>200</ele>
        <time>2012-01-06T18:57:47Z</time>
      </trkpt>
      <trkpt lat="45.77385" lon="4.83737">
        <ele>200</ele>
        <time>2012-01-06T18:57:48Z</time>
      </trkpt>
      <trkpt lat="45.77386" lon="4.83734">
        <ele>200</ele>
        <time>2012-01-06T18:57:52Z</time>
      </trkpt>
      <trkpt lat="45.77384" lon="4.8373">
        <ele>200</ele>
        <time>2012-01-06T18:57:56Z</time>
      </trkpt>
      <trkpt lat="45.77386" lon="4.83728">
        <ele>201</ele>
        <time>2012-01-06T18:57:59Z</time>
      </trkpt>
      <trkpt lat="45.77386" lon="4.83727">
        <ele>201</ele>
        <time>2012-01-06T18:58:00Z</time>
      </trkpt>
      <trkpt lat="45.77386" lon="4.83723">
        <ele>201</ele>
        <time>2012-01-06T18:58:03Z</time>
      </trkpt>
      <trkpt lat="45.77387" lon="4.83719">
        <ele>202</ele>
        <time>2012-01-06T18:58:05Z</time>
      </trkpt>
      <trkpt lat="45.77387" lon="4.83718">
        <ele>202</ele>
        <time>2012-01-06T18:58:07Z</time>
      </trkpt>
      <trkpt lat="45.77388" lon="4.83716">
        <ele>202</ele>
        <time>2012-01-06T18:58:12Z</time>
      </trkpt>
      <trkpt lat="45.77385" lon="4.83713">
        <ele>202</ele>
        <time>2012-01-06T18:58:21Z</time>
      </trkpt>
      <trkpt lat="45.77389" lon="4.83716">
        <ele>202</ele>
        <time>2012-01-06T18:58:23Z</time>
      </trkpt>
      <trkpt lat="45.77391" lon="4.83718">
        <ele>202</ele>
        <time>2012-01-06T18:58:24Z</time>
      </trkpt>
      <trkpt lat="45.77393" lon="4.83722">
        <ele>202</ele>
        <time>2012-01-06T18:58:26Z</time>
      </trkpt>
      <trkpt lat="45.77394" lon="4.83725">
        <ele>201</ele>
        <time>2012-01-06T18:58:28Z</time>
      </trkpt>
      <trkpt lat="45.77396" lon="4.83721">
        <ele>202</ele>
        <time>2012-01-06T18:58:33Z</time>
      </trkpt>
      <trkpt lat="45.7739" lon="4.8372">
        <ele>202</ele>
        <time>2012-01-06T18:58:41Z</time>
      </trkpt>
      <trkpt lat="45.77389" lon="4.83714">
        <ele>202</ele>
        <time>2012-01-06T18:58:45Z</time>
      </trkpt>
      <trkpt lat="45.77389" lon="4.83709">
        <ele>203</ele>
        <time>2012-01-06T18:59:16Z</time>
      </trkpt>
      <trkpt lat="45.77385" lon="4.83702">
        <ele>204</ele>
        <time>2012-01-06T18:59:56Z</time>
      </trkpt>
      <trkpt lat="45.77391" lon="4.83698">
        <ele>205</ele>
        <time>2012-01-06T19:00:04Z</time>
      </trkpt>
      <trkpt lat="45.77394" lon="4.83694">
        <ele>206</ele>
        <time>2012-01-06T19:00:06Z</time>
      </trkpt>
      <trkpt lat="45.77396" lon="4.83691">
        <ele>207</ele>
        <time>2012-01-06T19:00:07Z</time>
      </trkpt>
      <trkpt lat="45.77397" lon="4.83684">
        <ele>208</ele>
        <time>2012-01-06T19:00:09Z</time>
      </trkpt>
      <trkpt lat="45.77399" lon="4.83667">
        <ele>211</ele>
        <time>2012-01-06T19:00:14Z</time>
      </trkpt>
      <trkpt lat="45.77398" lon="4.83663">
        <ele>221</ele>
        <time>2012-01-06T19:00:15Z</time>
      </trkpt>
      <trkpt lat="45.77397" lon="4.8365">
        <ele>222</ele>
        <time>2012-01-06T19:00:20Z</time>
      </trkpt>
      <trkpt lat="45.77399" lon="4.8365">
        <ele>222</ele>
        <time>2012-01-06T19:00:21Z</time>
      </trkpt>
      <trkpt lat="45.77402" lon="4.83651">
        <ele>222</ele>
        <time>2012-01-06T19:00:22Z</time>
      </trkpt>
      <trkpt lat="45.77407" lon="4.83655">
        <ele>221</ele>
        <time>2012-01-06T19:00:25Z</time>
      </trkpt>
      <trkpt lat="45.77408" lon="4.83656">
        <ele>221</ele>
        <time>2012-01-06T19:00:27Z</time>
      </trkpt>
      <trkpt lat="45.77413" lon="4.83663">
        <ele>221</ele>
        <time>2012-01-06T19:00:31Z</time>
      </trkpt>
      <trkpt lat="45.77418" lon="4.83661">
        <ele>223</ele>
        <time>2012-01-06T19:00:35Z</time>
      </trkpt>
      <trkpt lat="45.77418" lon="4.83662">
        <ele>223</ele>
        <time>2012-01-06T19:00:36Z</time>
      </trkpt>
      <trkpt lat="45.77421" lon="4.83668">
        <ele>219</ele>
        <time>2012-01-06T19:00:40Z</time>
      </trkpt>
      <trkpt lat="45.77421" lon="4.83671">
        <ele>219</ele>
        <time>2012-01-06T19:00:42Z</time>
      </trkpt>
      <trkpt lat="45.77422" lon="4.83671">
        <ele>219</ele>
        <time>2012-01-06T19:00:43Z</time>
      </trkpt>
      <trkpt lat="45.77423" lon="4.83672">
        <ele>219</ele>
        <time>2012-01-06T19:00:44Z</time>
      </trkpt>
      <trkpt lat="45.77427" lon="4.83678">
        <ele>218</ele>
        <time>2012-01-06T19:00:50Z</time>
      </trkpt>
      <trkpt lat="45.77428" lon="4.83677">
        <ele>218</ele>
        <time>2012-01-06T19:00:51Z</time>
      </trkpt>
      <trkpt lat="45.77433" lon="4.83673">
        <ele>218</ele>
        <time>2012-01-06T19:00:54Z</time>
      </trkpt>
      <trkpt lat="45.77433" lon="4.83674">
        <ele>218</ele>
        <time>2012-01-06T19:00:56Z</time>
      </trkpt>
      <trkpt lat="45.77434" lon="4.83674">
        <ele>218</ele>
        <time>2012-01-06T19:00:58Z</time>
      </trkpt>
      <trkpt lat="45.77437" lon="4.83671">
        <ele>218</ele>
        <time>2012-01-06T19:01:00Z</time>
      </trkpt>
      <trkpt lat="45.77438" lon="4.8367">
        <ele>218</ele>
        <time>2012-01-06T19:01:01Z</time>
      </trkpt>
      <trkpt lat="45.77441" lon="4.83669">
        <ele>218</ele>
        <time>2012-01-06T19:01:04Z</time>
      </trkpt>
      <trkpt lat="45.77442" lon="4.83666">
        <ele>229</ele>
        <time>2012-01-06T19:01:05Z</time>
      </trkpt>
      <trkpt lat="45.77442" lon="4.83664">
        <ele>229</ele>
        <time>2012-01-06T19:01:07Z</time>
      </trkpt>
      <trkpt lat="45.77442" lon="4.83657">
        <ele>229</ele>
        <time>2012-01-06T19:01:11Z</time>
      </trkpt>
      <trkpt lat="45.77443" lon="4.83653">
        <ele>230</ele>
        <time>2012-01-06T19:01:14Z</time>
      </trkpt>
      <trkpt lat="45.77441" lon="4.83648">
        <ele>230</ele>
        <time>2012-01-06T19:01:19Z</time>
      </trkpt>
      <trkpt lat="45.77438" lon="4.83642">
        <ele>231</ele>
        <time>2012-01-06T19:01:50Z</time>
      </trkpt>
      <trkpt lat="45.77436" lon="4.8364">
        <ele>231</ele>
        <time>2012-01-06T19:02:01Z</time>
      </trkpt>
      <trkpt lat="45.77434" lon="4.8364">
        <ele>231</ele>
        <time>2012-01-06T19:02:04Z</time>
      </trkpt>
      <trkpt lat="45.77431" lon="4.83638">
        <ele>231</ele>
        <time>2012-01-06T19:02:09Z</time>
      </trkpt>
      <trkpt lat="45.77426" lon="4.83635">
        <ele>231</ele>
        <time>2012-01-06T19:02:15Z</time>
      </trkpt>
      <trkpt lat="45.77425" lon="4.83634">
        <ele>231</ele>
        <time>2012-01-06T19:02:17Z</time>
      </trkpt>
      <trkpt lat="45.77422" lon="4.83632">
        <ele>231</ele>
        <time>2012-01-06T19:02:20Z</time>
      </trkpt>
      <trkpt lat="45.77413" lon="4.83622">
        <ele>226</ele>
        <time>2012-01-06T19:02:26Z</time>
      </trkpt>
      <trkpt lat="45.77412" lon="4.83622">
        <ele>226</ele>
        <time>2012-01-06T19:02:27Z</time>
      </trkpt>
      <trkpt lat="45.77408" lon="4.83618">
        <ele>227</ele>
        <time>2012-01-06T19:02:30Z</time>
      </trkpt>
      <trkpt lat="45.77406" lon="4.83617">
        <ele>227</ele>
        <time>2012-01-06T19:02:31Z</time>
      </trkpt>
      <trkpt lat="45.77395" lon="4.83602">
        <ele>228</ele>
        <time>2012-01-06T19:02:37Z</time>
      </trkpt>
      <trkpt lat="45.7739" lon="4.83599">
        <ele>228</ele>
        <time>2012-01-06T19:02:39Z</time>
      </trkpt>
      <trkpt lat="45.77383" lon="4.83592">
        <ele>228</ele>
        <time>2012-01-06T19:02:42Z</time>
      </trkpt>
      <trkpt lat="45.77375" lon="4.83584">
        <ele>227</ele>
        <time>2012-01-06T19:02:46Z</time>
      </trkpt>
      <trkpt lat="45.77369" lon="4.83579">
        <ele>238</ele>
        <time>2012-01-06T19:02:48Z</time>
      </trkpt>
      <trkpt lat="45.77365" lon="4.83567">
        <ele>238</ele>
        <time>2012-01-06T19:02:52Z</time>
      </trkpt>
      <trkpt lat="45.77365" lon="4.83567">
        <ele>238</ele>
        <time>2012-01-06T19:02:53Z</time>
      </trkpt>
      <trkpt lat="45.77361" lon="4.83562">
        <ele>238</ele>
        <time>2012-01-06T19:02:54Z</time>
      </trkpt>
      <trkpt lat="45.77348" lon="4.83557">
        <ele>238</ele>
        <time>2012-01-06T19:02:58Z</time>
      </trkpt>
      <trkpt lat="45.77345" lon="4.83561">
        <ele>237</ele>
        <time>2012-01-06T19:03:00Z</time>
      </trkpt>
      <trkpt lat="45.77344" lon="4.83567">
        <ele>236</ele>
        <time>2012-01-06T19:03:02Z</time>
      </trkpt>
      <trkpt lat="45.7734" lon="4.83574">
        <ele>234</ele>
        <time>2012-01-06T19:03:06Z</time>
      </trkpt>
      <trkpt lat="45.77338" lon="4.83577">
        <ele>233</ele>
        <time>2012-01-06T19:03:08Z</time>
      </trkpt>
      <trkpt lat="45.77333" lon="4.83581">
        <ele>231</ele>
        <time>2012-01-06T19:03:12Z</time>
      </trkpt>
      <trkpt lat="45.77334" lon="4.83588">
        <ele>229</ele>
        <time>2012-01-06T19:03:15Z</time>
      </trkpt>
      <trkpt lat="45.77328" lon="4.83596">
        <ele>222</ele>
        <time>2012-01-06T19:03:20Z</time>
      </trkpt>
      <trkpt lat="45.77325" lon="4.83604">
        <ele>218</ele>
        <time>2012-01-06T19:03:25Z</time>
      </trkpt>
      <trkpt lat="45.77324" lon="4.83608">
        <ele>217</ele>
        <time>2012-01-06T19:03:27Z</time>
      </trkpt>
      <trkpt lat="45.77319" lon="4.83619">
        <ele>214</ele>
        <time>2012-01-06T19:03:34Z</time>
      </trkpt>
      <trkpt lat="45.77315" lon="4.83626">
        <ele>212</ele>
        <time>2012-01-06T19:03:40Z</time>
      </trkpt>
      <trkpt lat="45.77312" lon="4.83632">
        <ele>211</ele>
        <time>2012-01-06T19:03:45Z</time>
      </trkpt>
      <trkpt lat="45.77311" lon="4.83632">
        <ele>211</ele>
        <time>2012-01-06T19:03:46Z</time>
      </trkpt>
      <trkpt lat="45.77308" lon="4.83632">
        <ele>211</ele>
        <time>2012-01-06T19:03:49Z</time>
      </trkpt>
      <trkpt lat="45.77307" lon="4.83634">
        <ele>210</ele>
        <time>2012-01-06T19:03:51Z</time>
      </trkpt>
      <trkpt lat="45.77304" lon="4.8364">
        <ele>209</ele>
        <time>2012-01-06T19:03:52Z</time>
      </trkpt>
      <trkpt lat="45.773" lon="4.83643">
        <ele>209</ele>
        <time>2012-01-06T19:03:57Z</time>
      </trkpt>
      <trkpt lat="45.77296" lon="4.83647">
        <ele>208</ele>
        <time>2012-01-06T19:04:03Z</time>
      </trkpt>
      <trkpt lat="45.77297" lon="4.83647">
        <ele>208</ele>
        <time>2012-01-06T19:04:04Z</time>
      </trkpt>
      <trkpt lat="45.77298" lon="4.83645">
        <ele>208</ele>
        <time>2012-01-06T19:04:08Z</time>
      </trkpt>
      <trkpt lat="45.7729" lon="4.83636">
        <ele>209</ele>
        <time>2012-01-06T19:04:12Z</time>
      </trkpt>
      <trkpt lat="45.77288" lon="4.83632">
        <ele>209</ele>
        <time>2012-01-06T19:04:13Z</time>
      </trkpt>
      <trkpt lat="45.77281" lon="4.83627">
        <ele>210</ele>
        <time>2012-01-06T19:04:17Z</time>
      </trkpt>
      <trkpt lat="45.77273" lon="4.83622">
        <ele>210</ele>
        <time>2012-01-06T19:04:22Z</time>
      </trkpt>
      <trkpt lat="45.77271" lon="4.8362">
        <ele>210</ele>
        <time>2012-01-06T19:04:24Z</time>
      </trkpt>
      <trkpt lat="45.77266" lon="4.8362">
        <ele>210</ele>
        <time>2012-01-06T19:04:27Z</time>
      </trkpt>
      <trkpt lat="45.77258" lon="4.83619">
        <ele>210</ele>
        <time>2012-01-06T19:04:32Z</time>
      </trkpt>
      <trkpt lat="45.77254" lon="4.83617">
        <ele>210</ele>
        <time>2012-01-06T19:04:35Z</time>
      </trkpt>
      <trkpt lat="45.77253" lon="4.83618">
        <ele>210</ele>
        <time>2012-01-06T19:04:36Z</time>
      </trkpt>
      <trkpt lat="45.77252" lon="4.83619">
        <ele>209</ele>
        <time>2012-01-06T19:04:37Z</time>
      </trkpt>
      <trkpt lat="45.77248" lon="4.83619">
        <ele>205</ele>
        <time>2012-01-06T19:04:41Z</time>
      </trkpt>
      <trkpt lat="45.77247" lon="4.83619">
        <ele>205</ele>
        <time>2012-01-06T19:04:42Z</time>
      </trkpt>
      <trkpt lat="45.77247" lon="4.83619">
        <ele>205</ele>
        <time>2012-01-06T19:04:48Z</time>
      </trkpt>
      <trkpt lat="45.77252" lon="4.83624">
        <ele>209</ele>
        <time>2012-01-06T19:04:53Z</time>
      </trkpt>
      <trkpt lat="45.77251" lon="4.83625">
        <ele>208</ele>
        <time>2012-01-06T19:04:54Z</time>
      </trkpt>
      <trkpt lat="45.77249" lon="4.83625">
        <ele>204</ele>
        <time>2012-01-06T19:04:56Z</time>
      </trkpt>
      <trkpt lat="45.77245" lon="4.83624">
        <ele>204</ele>
        <time>2012-01-06T19:04:59Z</time>
      </trkpt>
      <trkpt lat="45.77246" lon="4.83624">
        <ele>204</ele>
        <time>2012-01-06T19:05:02Z</time>
      </trkpt>
      <trkpt lat="45.77249" lon="4.83624">
        <ele>204</ele>
        <time>2012-01-06T19:05:04Z</time>
      </trkpt>
      <trkpt lat="45.77248" lon="4.83628">
        <ele>203</ele>
        <time>2012-01-06T19:05:08Z</time>
      </trkpt>
      <trkpt lat="45.77244" lon="4.83629">
        <ele>203</ele>
        <time>2012-01-06T19:05:12Z</time>
      </trkpt>
      <trkpt lat="45.7724" lon="4.83629">
        <ele>203</ele>
        <time>2012-01-06T19:05:14Z</time>
      </trkpt>
      <trkpt lat="45.77237" lon="4.83628">
        <ele>203</ele>
        <time>2012-01-06T19:05:15Z</time>
      </trkpt>
      <trkpt lat="45.77227" lon="4.83625">
        <ele>203</ele>
        <time>2012-01-06T19:05:19Z</time>
      </trkpt>
      <trkpt lat="45.77225" lon="4.83626">
        <ele>203</ele>
        <time>2012-01-06T19:05:20Z</time>
      </trkpt>
      <trkpt lat="45.7722" lon="4.83629">
        <ele>203</ele>
        <time>2012-01-06T19:05:24Z</time>
      </trkpt>
      <trkpt lat="45.77215" lon="4.83633">
        <ele>202</ele>
        <time>2012-01-06T19:05:28Z</time>
      </trkpt>
      <trkpt lat="45.77214" lon="4.83633">
        <ele>202</ele>
        <time>2012-01-06T19:05:29Z</time>
      </trkpt>
      <trkpt lat="45.77208" lon="4.83631">
        <ele>202</ele>
        <time>2012-01-06T19:05:33Z</time>
      </trkpt>
      <trkpt lat="45.77206" lon="4.8363">
        <ele>202</ele>
        <time>2012-01-06T19:05:34Z</time>
      </trkpt>
      <trkpt lat="45.77198" lon="4.83628">
        <ele>202</ele>
        <time>2012-01-06T19:05:38Z</time>
      </trkpt>
      <trkpt lat="45.77197" lon="4.83629">
        <ele>202</ele>
        <time>2012-01-06T19:05:39Z</time>
      </trkpt>
      <trkpt lat="45.77191" lon="4.83632">
        <ele>202</ele>
        <time>2012-01-06T19:05:44Z</time>
      </trkpt>
      <trkpt lat="45.7719" lon="4.83632">
        <ele>202</ele>
        <time>2012-01-06T19:05:45Z</time>
      </trkpt>
      <trkpt lat="45.77187" lon="4.83637">
        <ele>201</ele>
        <time>2012-01-06T19:05:48Z</time>
      </trkpt>
      <trkpt lat="45.77179" lon="4.83645">
        <ele>199</ele>
        <time>2012-01-06T19:05:53Z</time>
      </trkpt>
      <trkpt lat="45.77177" lon="4.83644">
        <ele>199</ele>
        <time>2012-01-06T19:05:54Z</time>
      </trkpt>
      <trkpt lat="45.77173" lon="4.83643">
        <ele>199</ele>
        <time>2012-01-06T19:05:56Z</time>
      </trkpt>
      <trkpt lat="45.77162" lon="4.83639">
        <ele>196</ele>
        <time>2012-01-06T19:06:01Z</time>
      </trkpt>
      <trkpt lat="45.77154" lon="4.83639">
        <ele>196</ele>
        <time>2012-01-06T19:06:04Z</time>
      </trkpt>
      <trkpt lat="45.77146" lon="4.83638">
        <ele>196</ele>
        <time>2012-01-06T19:06:07Z</time>
      </trkpt>
      <trkpt lat="45.77134" lon="4.83635">
        <ele>196</ele>
        <time>2012-01-06T19:06:12Z</time>
      </trkpt>
      <trkpt lat="45.77132" lon="4.83634">
        <ele>196</ele>
        <time>2012-01-06T19:06:13Z</time>
      </trkpt>
      <trkpt lat="45.77122" lon="4.83631">
        <ele>196</ele>
        <time>2012-01-06T19:06:18Z</time>
      </trkpt>
      <trkpt lat="45.77117" lon="4.8363">
        <ele>195</ele>
        <time>2012-01-06T19:06:21Z</time>
      </trkpt>
      <trkpt lat="45.77113" lon="4.83629">
        <ele>195</ele>
        <time>2012-01-06T19:06:22Z</time>
      </trkpt>
      <trkpt lat="45.77112" lon="4.83629">
        <ele>195</ele>
        <time>2012-01-06T19:06:23Z</time>
      </trkpt>
      <trkpt lat="45.77104" lon="4.83633">
        <ele>194</ele>
        <time>2012-01-06T19:06:27Z</time>
      </trkpt>
      <trkpt lat="45.77096" lon="4.83637">
        <ele>193</ele>
        <time>2012-01-06T19:06:31Z</time>
      </trkpt>
      <trkpt lat="45.77092" lon="4.83637">
        <ele>193</ele>
        <time>2012-01-06T19:06:33Z</time>
      </trkpt>
      <trkpt lat="45.77084" lon="4.83633">
        <ele>193</ele>
        <time>2012-01-06T19:06:37Z</time>
      </trkpt>
      <trkpt lat="45.77078" lon="4.83631">
        <ele>192</ele>
        <time>2012-01-06T19:06:39Z</time>
      </trkpt>
      <trkpt lat="45.77074" lon="4.83627">
        <ele>193</ele>
        <time>2012-01-06T19:06:41Z</time>
      </trkpt>
      <trkpt lat="45.77073" lon="4.83624">
        <ele>193</ele>
        <time>2012-01-06T19:06:42Z</time>
      </trkpt>
      <trkpt lat="45.77072" lon="4.83615">
        <ele>195</ele>
        <time>2012-01-06T19:06:46Z</time>
      </trkpt>
      <trkpt lat="45.77071" lon="4.83608">
        <ele>195</ele>
        <time>2012-01-06T19:06:49Z</time>
      </trkpt>
      <trkpt lat="45.7707" lon="4.836">
        <ele>196</ele>
        <time>2012-01-06T19:06:52Z</time>
      </trkpt>
      <trkpt lat="45.77071" lon="4.83595">
        <ele>197</ele>
        <time>2012-01-06T19:06:55Z</time>
      </trkpt>
      <trkpt lat="45.77071" lon="4.83592">
        <ele>197</ele>
        <time>2012-01-06T19:06:57Z</time>
      </trkpt>
      <trkpt lat="45.77072" lon="4.83592">
        <ele>197</ele>
        <time>2012-01-06T19:06:59Z</time>
      </trkpt>
      <trkpt lat="45.77075" lon="4.83593">
        <ele>197</ele>
        <time>2012-01-06T19:07:02Z</time>
      </trkpt>
      <trkpt lat="45.7708" lon="4.83594">
        <ele>198</ele>
        <time>2012-01-06T19:07:04Z</time>
      </trkpt>
      <trkpt lat="45.77086" lon="4.83595">
        <ele>199</ele>
        <time>2012-01-06T19:07:07Z</time>
      </trkpt>
      <trkpt lat="45.7709" lon="4.83595">
        <ele>198</ele>
        <time>2012-01-06T19:07:09Z</time>
      </trkpt>
      <trkpt lat="45.77098" lon="4.83596">
        <ele>198</ele>
        <time>2012-01-06T19:07:14Z</time>
      </trkpt>
      <trkpt lat="45.77104" lon="4.83596">
        <ele>198</ele>
        <time>2012-01-06T19:07:17Z</time>
      </trkpt>
      <trkpt lat="45.77106" lon="4.83596">
        <ele>198</ele>
        <time>2012-01-06T19:07:19Z</time>
      </trkpt>
      <trkpt lat="45.77117" lon="4.83595">
        <ele>199</ele>
        <time>2012-01-06T19:07:25Z</time>
      </trkpt>
      <trkpt lat="45.77119" lon="4.83595">
        <ele>199</ele>
        <time>2012-01-06T19:07:26Z</time>
      </trkpt>
      <trkpt lat="45.77127" lon="4.83595">
        <ele>200</ele>
        <time>2012-01-06T19:07:32Z</time>
      </trkpt>
      <trkpt lat="45.77135" lon="4.83592">
        <ele>201</ele>
        <time>2012-01-06T19:07:36Z</time>
      </trkpt>
      <trkpt lat="45.77137" lon="4.83591">
        <ele>201</ele>
        <time>2012-01-06T19:07:37Z</time>
      </trkpt>
      <trkpt lat="45.77148" lon="4.8359">
        <ele>204</ele>
        <time>2012-01-06T19:07:42Z</time>
      </trkpt>
      <trkpt lat="45.77156" lon="4.83589">
        <ele>206</ele>
        <time>2012-01-06T19:07:47Z</time>
      </trkpt>
      <trkpt lat="45.77157" lon="4.8359">
        <ele>206</ele>
        <time>2012-01-06T19:07:48Z</time>
      </trkpt>
      <trkpt lat="45.77159" lon="4.83591">
        <ele>207</ele>
        <time>2012-01-06T19:07:49Z</time>
      </trkpt>
      <trkpt lat="45.77166" lon="4.83592">
        <ele>208</ele>
        <time>2012-01-06T19:07:52Z</time>
      </trkpt>
      <trkpt lat="45.77174" lon="4.83594">
        <ele>208</ele>
        <time>2012-01-06T19:07:55Z</time>
      </trkpt>
      <trkpt lat="45.77176" lon="4.83595">
        <ele>208</ele>
        <time>2012-01-06T19:07:56Z</time>
      </trkpt>
      <trkpt lat="45.7718" lon="4.83596">
        <ele>207</ele>
        <time>2012-01-06T19:07:58Z</time>
      </trkpt>
      <trkpt lat="45.77195" lon="4.83601">
        <ele>206</ele>
        <time>2012-01-06T19:08:04Z</time>
      </trkpt>
      <trkpt lat="45.77206" lon="4.83605">
        <ele>205</ele>
        <time>2012-01-06T19:08:09Z</time>
      </trkpt>
      <trkpt lat="45.77215" lon="4.83607">
        <ele>205</ele>
        <time>2012-01-06T19:08:13Z</time>
      </trkpt>
      <trkpt lat="45.77219" lon="4.83608">
        <ele>205</ele>
        <time>2012-01-06T19:08:15Z</time>
      </trkpt>
      <trkpt lat="45.77231" lon="4.83609">
        <ele>206</ele>
        <time>2012-01-06T19:08:20Z</time>
      </trkpt>
      <trkpt lat="45.77234" lon="4.8361">
        <ele>206</ele>
        <time>2012-01-06T19:08:22Z</time>
      </trkpt>
      <trkpt lat="45.77241" lon="4.83612">
        <ele>206</ele>
        <time>2012-01-06T19:08:26Z</time>
      </trkpt>
      <trkpt lat="45.77252" lon="4.83615">
        <ele>210</ele>
        <time>2012-01-06T19:08:31Z</time>
      </trkpt>
      <trkpt lat="45.77254" lon="4.83615">
        <ele>210</ele>
        <time>2012-01-06T19:08:32Z</time>
      </trkpt>
      <trkpt lat="45.77255" lon="4.83615">
        <ele>210</ele>
        <time>2012-01-06T19:08:33Z</time>
      </trkpt>
      <trkpt lat="45.77258" lon="4.83609">
        <ele>211</ele>
        <time>2012-01-06T19:08:36Z</time>
      </trkpt>
      <trkpt lat="45.77264" lon="4.83597">
        <ele>213</ele>
        <time>2012-01-06T19:08:41Z</time>
      </trkpt>
      <trkpt lat="45.77268" lon="4.83591">
        <ele>213</ele>
        <time>2012-01-06T19:08:46Z</time>
      </trkpt>
      <trkpt lat="45.77277" lon="4.83587">
        <ele>214</ele>
        <time>2012-01-06T19:08:51Z</time>
      </trkpt>
      <trkpt lat="45.77281" lon="4.83587">
        <ele>214</ele>
        <time>2012-01-06T19:08:53Z</time>
      </trkpt>
      <trkpt lat="45.77281" lon="4.83585">
        <ele>214</ele>
        <time>2012-01-06T19:08:56Z</time>
      </trkpt>
      <trkpt lat="45.77281" lon="4.83582">
        <ele>225</ele>
        <time>2012-01-06T19:08:58Z</time>
      </trkpt>
      <trkpt lat="45.7728" lon="4.83577">
        <ele>225</ele>
        <time>2012-01-06T19:09:01Z</time>
      </trkpt>
      <trkpt lat="45.77281" lon="4.83574">
        <ele>226</ele>
        <time>2012-01-06T19:09:05Z</time>
      </trkpt>
      <trkpt lat="45.77286" lon="4.83569">
        <ele>227</ele>
        <time>2012-01-06T19:09:11Z</time>
      </trkpt>
      <trkpt lat="45.77286" lon="4.83567">
        <ele>227</ele>
        <time>2012-01-06T19:09:12Z</time>
      </trkpt>
      <trkpt lat="45.77289" lon="4.83563">
        <ele>228</ele>
        <time>2012-01-06T19:09:15Z</time>
      </trkpt>
      <trkpt lat="45.77289" lon="4.8356">
        <ele>228</ele>
        <time>2012-01-06T19:09:16Z</time>
      </trkpt>
      <trkpt lat="45.77286" lon="4.83545">
        <ele>229</ele>
        <time>2012-01-06T19:09:21Z</time>
      </trkpt>
      <trkpt lat="45.77286" lon="4.8354">
        <ele>229</ele>
        <time>2012-01-06T19:09:24Z</time>
      </trkpt>
      <trkpt lat="45.77288" lon="4.83539">
        <ele>230</ele>
        <time>2012-01-06T19:09:27Z</time>
      </trkpt>
      <trkpt lat="45.7729" lon="4.83538">
        <ele>230</ele>
        <time>2012-01-06T19:09:29Z</time>
      </trkpt>
      <trkpt lat="45.77291" lon="4.83537">
        <ele>230</ele>
        <time>2012-01-06T19:09:30Z</time>
      </trkpt>
      <trkpt lat="45.77295" lon="4.83535">
        <ele>231</ele>
        <time>2012-01-06T19:09:32Z</time>
      </trkpt>
      <trkpt lat="45.7731" lon="4.83533">
        <ele>232</ele>
        <time>2012-01-06T19:09:38Z</time>
      </trkpt>
      <trkpt lat="45.77315" lon="4.83534">
        <ele>233</ele>
        <time>2012-01-06T19:09:41Z</time>
      </trkpt>
      <trkpt lat="45.77318" lon="4.83535">
        <ele>233</ele>
        <time>2012-01-06T19:09:43Z</time>
      </trkpt>
      <trkpt lat="45.77322" lon="4.83538">
        <ele>233</ele>
        <time>2012-01-06T19:09:46Z</time>
      </trkpt>
      <trkpt lat="45.77329" lon="4.83543">
        <ele>232</ele>
        <time>2012-01-06T19:09:50Z</time>
      </trkpt>
      <trkpt lat="45.77335" lon="4.83546">
        <ele>239</ele>
        <time>2012-01-06T19:09:54Z</time>
      </trkpt>
      <trkpt lat="45.77337" lon="4.83547">
        <ele>239</ele>
        <time>2012-01-06T19:09:56Z</time>
      </trkpt>
      <trkpt lat="45.77342" lon="4.83554">
        <ele>238</ele>
        <time>2012-01-06T19:10:02Z</time>
      </trkpt>
      <trkpt lat="45.77345" lon="4.83554">
        <ele>238</ele>
        <time>2012-01-06T19:10:04Z</time>
      </trkpt>
      <trkpt lat="45.77346" lon="4.83553">
        <ele>238</ele>
        <time>2012-01-06T19:10:05Z</time>
      </trkpt>
      <trkpt lat="45.77347" lon="4.83552">
        <ele>239</ele>
        <time>2012-01-06T19:10:06Z</time>
      </trkpt>
      <trkpt lat="45.77349" lon="4.83552">
        <ele>239</ele>
        <time>2012-01-06T19:10:07Z</time>
      </trkpt>
      <trkpt lat="45.77356" lon="4.83549">
        <ele>239</ele>
        <time>2012-01-06T19:10:12Z</time>
      </trkpt>
      <trkpt lat="45.77355" lon="4.83548">
        <ele>240</ele>
        <time>2012-01-06T19:10:13Z</time>
      </trkpt>
      <trkpt lat="45.77354" lon="4.83539">
        <ele>240</ele>
        <time>2012-01-06T19:10:19Z</time>
      </trkpt>
      <trkpt lat="45.77356" lon="4.83536">
        <ele>241</ele>
        <time>2012-01-06T19:10:23Z</time>
      </trkpt>
      <trkpt lat="45.77358" lon="4.83533">
        <ele>241</ele>
        <time>2012-01-06T19:10:27Z</time>
      </trkpt>
      <trkpt lat="45.7736" lon="4.83528">
        <ele>241</ele>
        <time>2012-01-06T19:10:32Z</time>
      </trkpt>
      <trkpt lat="45.77361" lon="4.83528">
        <ele>242</ele>
        <time>2012-01-06T19:10:33Z</time>
      </trkpt>
      <trkpt lat="45.77363" lon="4.83524">
        <ele>242</ele>
        <time>2012-01-06T19:10:39Z</time>
      </trkpt>
      <trkpt lat="45.77363" lon="4.83527">
        <ele>242</ele>
        <time>2012-01-06T19:10:55Z</time>
      </trkpt>
      <trkpt lat="45.77361" lon="4.83527">
        <ele>242</ele>
        <time>2012-01-06T19:11:04Z</time>
      </trkpt>
      <trkpt lat="45.77359" lon="4.83528">
        <ele>241</ele>
        <time>2012-01-06T19:11:07Z</time>
      </trkpt>
      <trkpt lat="45.77359" lon="4.83526">
        <ele>242</ele>
        <time>2012-01-06T19:11:09Z</time>
      </trkpt>
      <trkpt lat="45.77359" lon="4.83525">
        <ele>242</ele>
        <time>2012-01-06T19:11:16Z</time>
      </trkpt>
      <trkpt lat="45.7736" lon="4.83525">
        <ele>242</ele>
        <time>2012-01-06T19:11:17Z</time>
      </trkpt>
      <trkpt lat="45.77361" lon="4.83525">
        <ele>242</ele>
        <time>2012-01-06T19:11:21Z</time>
      </trkpt>
      <trkpt lat="45.77366" lon="4.83526">
        <ele>242</ele>
        <time>2012-01-06T19:11:47Z</time>
      </trkpt>
      <trkpt lat="45.77368" lon="4.83526">
        <ele>242</ele>
        <time>2012-01-06T19:11:52Z</time>
      </trkpt>
      <trkpt lat="45.77364" lon="4.83527">
        <ele>242</ele>
        <time>2012-01-06T19:12:11Z</time>
      </trkpt>
      <trkpt lat="45.77367" lon="4.83524">
        <ele>242</ele>
        <time>2012-01-06T19:12:17Z</time>
      </trkpt>
      <trkpt lat="45.77368" lon="4.83522">
        <ele>242</ele>
        <time>2012-01-06T19:12:19Z</time>
      </trkpt>
      <trkpt lat="45.77369" lon="4.83519">
        <ele>242</ele>
        <time>2012-01-06T19:12:20Z</time>
      </trkpt>
      <trkpt lat="45.77372" lon="4.83508">
        <ele>243</ele>
        <time>2012-01-06T19:12:23Z</time>
      </trkpt>
      <trkpt lat="45.77381" lon="4.83496">
        <ele>249</ele>
        <time>2012-01-06T19:12:27Z</time>
      </trkpt>
      <trkpt lat="45.77383" lon="4.83493">
        <ele>249</ele>
        <time>2012-01-06T19:12:28Z</time>
      </trkpt>
      <trkpt lat="45.77398" lon="4.83485">
        <ele>250</ele>
        <time>2012-01-06T19:12:33Z</time>
      </trkpt>
      <trkpt lat="45.77405" lon="4.83496">
        <ele>250</ele>
        <time>2012-01-06T19:12:38Z</time>
      </trkpt>
      <trkpt lat="45.77413" lon="4.83506">
        <ele>249</ele>
        <time>2012-01-06T19:12:43Z</time>
      </trkpt>
      <trkpt lat="45.77424" lon="4.8351">
        <ele>249</ele>
        <time>2012-01-06T19:12:48Z</time>
      </trkpt>
      <trkpt lat="45.77429" lon="4.83515">
        <ele>248</ele>
        <time>2012-01-06T19:12:50Z</time>
      </trkpt>
      <trkpt lat="45.7743" lon="4.83517">
        <ele>248</ele>
        <time>2012-01-06T19:12:51Z</time>
      </trkpt>
      <trkpt lat="45.77436" lon="4.83519">
        <ele>247</ele>
        <time>2012-01-06T19:12:54Z</time>
      </trkpt>
      <trkpt lat="45.77444" lon="4.83518">
        <ele>247</ele>
        <time>2012-01-06T19:12:58Z</time>
      </trkpt>
      <trkpt lat="45.77447" lon="4.83511">
        <ele>248</ele>
        <time>2012-01-06T19:13:01Z</time>
      </trkpt>
      <trkpt lat="45.77449" lon="4.83502">
        <ele>248</ele>
        <time>2012-01-06T19:13:04Z</time>
      </trkpt>
      <trkpt lat="45.77456" lon="4.83491">
        <ele>251</ele>
        <time>2012-01-06T19:13:08Z</time>
      </trkpt>
      <trkpt lat="45.77457" lon="4.83491">
        <ele>251</ele>
        <time>2012-01-06T19:13:09Z</time>
      </trkpt>
      <trkpt lat="45.77461" lon="4.83491">
        <ele>251</ele>
        <time>2012-01-06T19:13:15Z</time>
      </trkpt>
      <trkpt lat="45.77465" lon="4.83493">
        <ele>251</ele>
        <time>2012-01-06T19:13:22Z</time>
      </trkpt>
      <trkpt lat="45.77468" lon="4.83492">
        <ele>251</ele>
        <time>2012-01-06T19:13:29Z</time>
      </trkpt>
      <trkpt lat="45.77473" lon="4.8349">
        <ele>251</ele>
        <time>2012-01-06T19:13:36Z</time>
      </trkpt>
      <trkpt lat="45.77474" lon="4.8349">
        <ele>251</ele>
        <time>2012-01-06T19:13:37Z</time>
      </trkpt>
      <trkpt lat="45.77478" lon="4.83486">
        <ele>251</ele>
        <time>2012-01-06T19:13:41Z</time>
      </trkpt>
      <trkpt lat="45.77479" lon="4.83483">
        <ele>251</ele>
        <time>2012-01-06T19:13:43Z</time>
      </trkpt>
      <trkpt lat="45.77483" lon="4.83479">
        <ele>251</ele>
        <time>2012-01-06T19:13:49Z</time>
      </trkpt>
      <trkpt lat="45.77491" lon="4.83478">
        <ele>250</ele>
        <time>2012-01-06T19:13:55Z</time>
      </trkpt>
      <trkpt lat="45.77492" lon="4.83478">
        <ele>250</ele>
        <time>2012-01-06T19:13:56Z</time>
      </trkpt>
      <trkpt lat="45.77498" lon="4.83478">
        <ele>250</ele>
        <time>2012-01-06T19:14:02Z</time>
      </trkpt>
      <trkpt lat="45.77503" lon="4.83477">
        <ele>251</ele>
        <time>2012-01-06T19:14:05Z</time>
      </trkpt>
      <trkpt lat="45.77507" lon="4.83475">
        <ele>251</ele>
        <time>2012-01-06T19:14:08Z</time>
      </trkpt>
      <trkpt lat="45.77509" lon="4.83475">
        <ele>251</ele>
        <time>2012-01-06T19:14:10Z</time>
      </trkpt>
      <trkpt lat="45.7751" lon="4.83476">
        <ele>251</ele>
        <time>2012-01-06T19:14:11Z</time>
      </trkpt>
      <trkpt lat="45.77512" lon="4.83477">
        <ele>251</ele>
        <time>2012-01-06T19:14:13Z</time>
      </trkpt>
      <trkpt lat="45.77513" lon="4.83478">
        <ele>251</ele>
        <time>2012-01-06T19:14:14Z</time>
      </trkpt>
      <trkpt lat="45.77522" lon="4.83479">
        <ele>251</ele>
        <time>2012-01-06T19:14:20Z</time>
      </trkpt>
      <trkpt lat="45.77527" lon="4.8348">
        <ele>252</ele>
        <time>2012-01-06T19:14:23Z</time>
      </trkpt>
      <trkpt lat="45.77532" lon="4.83479">
        <ele>252</ele>
        <time>2012-01-06T19:14:26Z</time>
      </trkpt>
      <trkpt lat="45.77537" lon="4.83484">
        <ele>252</ele>
        <time>2012-01-06T19:14:30Z</time>
      </trkpt>
      <trkpt lat="45.77539" lon="4.83486">
        <ele>252</ele>
        <time>2012-01-06T19:14:31Z</time>
      </trkpt>
      <trkpt lat="45.77545" lon="4.83486">
        <ele>252</ele>
        <time>2012-01-06T19:14:34Z</time>
      </trkpt>
      <trkpt lat="45.77549" lon="4.83488">
        <ele>252</ele>
        <time>2012-01-06T19:14:36Z</time>
      </trkpt>
      <trkpt lat="45.77558" lon="4.83489">
        <ele>253</ele>
        <time>2012-01-06T19:14:40Z</time>
      </trkpt>
      <trkpt lat="45.77564" lon="4.8349">
        <ele>253</ele>
        <time>2012-01-06T19:14:43Z</time>
      </trkpt>
      <trkpt lat="45.77567" lon="4.8349">
        <ele>253</ele>
        <time>2012-01-06T19:14:44Z</time>
      </trkpt>
      <trkpt lat="45.77581" lon="4.83492">
        <ele>254</ele>
        <time>2012-01-06T19:14:50Z</time>
      </trkpt>
      <trkpt lat="45.77584" lon="4.83492">
        <ele>254</ele>
        <time>2012-01-06T19:14:51Z</time>
      </trkpt>
      <trkpt lat="45.77593" lon="4.83493">
        <ele>255</ele>
        <time>2012-01-06T19:14:55Z</time>
      </trkpt>
      <trkpt lat="45.77596" lon="4.83494">
        <ele>255</ele>
        <time>2012-01-06T19:14:56Z</time>
      </trkpt>
      <trkpt lat="45.77602" lon="4.83494">
        <ele>255</ele>
        <time>2012-01-06T19:14:58Z</time>
      </trkpt>
      <trkpt lat="45.77611" lon="4.83494">
        <ele>255</ele>
        <time>2012-01-06T19:15:01Z</time>
      </trkpt>
      <trkpt lat="45.77622" lon="4.83495">
        <ele>255</ele>
        <time>2012-01-06T19:15:04Z</time>
      </trkpt>
      <trkpt lat="45.7763" lon="4.83496">
        <ele>256</ele>
        <time>2012-01-06T19:15:07Z</time>
      </trkpt>
      <trkpt lat="45.77636" lon="4.83498">
        <ele>256</ele>
        <time>2012-01-06T19:15:10Z</time>
      </trkpt>
      <trkpt lat="45.77638" lon="4.83503">
        <ele>254</ele>
        <time>2012-01-06T19:15:12Z</time>
      </trkpt>
      <trkpt lat="45.77639" lon="4.83507">
        <ele>254</ele>
        <time>2012-01-06T19:15:13Z</time>
      </trkpt>
      <trkpt lat="45.77641" lon="4.83513">
        <ele>254</ele>
        <time>2012-01-06T19:15:15Z</time>
      </trkpt>
      <trkpt lat="45.77645" lon="4.83524">
        <ele>254</ele>
        <time>2012-01-06T19:15:18Z</time>
      </trkpt>
      <trkpt lat="45.77646" lon="4.83527">
        <ele>254</ele>
        <time>2012-01-06T19:15:19Z</time>
      </trkpt>
      <trkpt lat="45.77647" lon="4.83534">
        <ele>253</ele>
        <time>2012-01-06T19:15:21Z</time>
      </trkpt>
      <trkpt lat="45.77647" lon="4.83537">
        <ele>253</ele>
        <time>2012-01-06T19:15:22Z</time>
      </trkpt>
      <trkpt lat="45.77649" lon="4.83555">
        <ele>253</ele>
        <time>2012-01-06T19:15:27Z</time>
      </trkpt>
      <trkpt lat="45.77648" lon="4.83562">
        <ele>252</ele>
        <time>2012-01-06T19:15:29Z</time>
      </trkpt>
      <trkpt lat="45.77648" lon="4.83573">
        <ele>252</ele>
        <time>2012-01-06T19:15:32Z</time>
      </trkpt>
      <trkpt lat="45.77649" lon="4.8359">
        <ele>249</ele>
        <time>2012-01-06T19:15:36Z</time>
      </trkpt>
      <trkpt lat="45.7765" lon="4.83598">
        <ele>248</ele>
        <time>2012-01-06T19:15:38Z</time>
      </trkpt>
      <trkpt lat="45.77649" lon="4.83606">
        <ele>248</ele>
        <time>2012-01-06T19:15:40Z</time>
      </trkpt>
      <trkpt lat="45.77651" lon="4.83614">
        <ele>247</ele>
        <time>2012-01-06T19:15:42Z</time>
      </trkpt>
      <trkpt lat="45.77651" lon="4.83616">
        <ele>247</ele>
        <time>2012-01-06T19:15:43Z</time>
      </trkpt>
      <trkpt lat="45.77652" lon="4.83625">
        <ele>247</ele>
        <time>2012-01-06T19:15:46Z</time>
      </trkpt>
      <trkpt lat="45.77652" lon="4.83628">
        <ele>247</ele>
        <time>2012-01-06T19:15:47Z</time>
      </trkpt>
      <trkpt lat="45.77653" lon="4.83643">
        <ele>247</ele>
        <time>2012-01-06T19:15:51Z</time>
      </trkpt>
      <trkpt lat="45.77654" lon="4.83651">
        <ele>247</ele>
        <time>2012-01-06T19:15:53Z</time>
      </trkpt>
      <trkpt lat="45.77656" lon="4.83671">
        <ele>245</ele>
        <time>2012-01-06T19:15:58Z</time>
      </trkpt>
      <trkpt lat="45.77656" lon="4.83675">
        <ele>244</ele>
        <time>2012-01-06T19:15:59Z</time>
      </trkpt>
      <trkpt lat="45.77657" lon="4.83695">
        <ele>242</ele>
        <time>2012-01-06T19:16:04Z</time>
      </trkpt>
      <trkpt lat="45.77657" lon="4.83699">
        <ele>242</ele>
        <time>2012-01-06T19:16:05Z</time>
      </trkpt>
      <trkpt lat="45.77657" lon="4.83717">
        <ele>242</ele>
        <time>2012-01-06T19:16:10Z</time>
      </trkpt>
      <trkpt lat="45.7766" lon="4.83726">
        <ele>242</ele>
        <time>2012-01-06T19:16:13Z</time>
      </trkpt>
      <trkpt lat="45.77663" lon="4.83736">
        <ele>243</ele>
        <time>2012-01-06T19:16:16Z</time>
      </trkpt>
      <trkpt lat="45.77671" lon="4.8375">
        <ele>247</ele>
        <time>2012-01-06T19:16:21Z</time>
      </trkpt>
      <trkpt lat="45.77681" lon="4.83766">
        <ele>244</ele>
        <time>2012-01-06T19:16:27Z</time>
      </trkpt>
      <trkpt lat="45.77684" lon="4.83768">
        <ele>244</ele>
        <time>2012-01-06T19:16:28Z</time>
      </trkpt>
      <trkpt lat="45.77697" lon="4.83788">
        <ele>242</ele>
        <time>2012-01-06T19:16:34Z</time>
      </trkpt>
      <trkpt lat="45.77706" lon="4.83807">
        <ele>241</ele>
        <time>2012-01-06T19:16:40Z</time>
      </trkpt>
      <trkpt lat="45.77708" lon="4.8381">
        <ele>241</ele>
        <time>2012-01-06T19:16:41Z</time>
      </trkpt>
      <trkpt lat="45.77711" lon="4.83825">
        <ele>241</ele>
        <time>2012-01-06T19:16:45Z</time>
      </trkpt>
      <trkpt lat="45.77714" lon="4.83835">
        <ele>231</ele>
        <time>2012-01-06T19:16:48Z</time>
      </trkpt>
      <trkpt lat="45.77717" lon="4.8384">
        <ele>231</ele>
        <time>2012-01-06T19:16:50Z</time>
      </trkpt>
      <trkpt lat="45.77726" lon="4.83856">
        <ele>231</ele>
        <time>2012-01-06T19:16:56Z</time>
      </trkpt>
      <trkpt lat="45.7773" lon="4.83871">
        <ele>229</ele>
        <time>2012-01-06T19:17:02Z</time>
      </trkpt>
      <trkpt lat="45.77736" lon="4.83877">
        <ele>228</ele>
        <time>2012-01-06T19:17:05Z</time>
      </trkpt>
      <trkpt lat="45.77742" lon="4.83879">
        <ele>228</ele>
        <time>2012-01-06T19:17:07Z</time>
      </trkpt>
      <trkpt lat="45.77754" lon="4.83881">
        <ele>232</ele>
        <time>2012-01-06T19:17:11Z</time>
      </trkpt>
      <trkpt lat="45.77756" lon="4.83882">
        <ele>232</ele>
        <time>2012-01-06T19:17:12Z</time>
      </trkpt>
      <trkpt lat="45.77761" lon="4.83888">
        <ele>231</ele>
        <time>2012-01-06T19:17:16Z</time>
      </trkpt>
      <trkpt lat="45.77762" lon="4.8389">
        <ele>231</ele>
        <time>2012-01-06T19:17:17Z</time>
      </trkpt>
      <trkpt lat="45.77765" lon="4.83897">
        <ele>230</ele>
        <time>2012-01-06T19:17:21Z</time>
      </trkpt>
      <trkpt lat="45.77765" lon="4.83899">
        <ele>230</ele>
        <time>2012-01-06T19:17:22Z</time>
      </trkpt>
      <trkpt lat="45.77765" lon="4.83901">
        <ele>230</ele>
        <time>2012-01-06T19:17:23Z</time>
      </trkpt>
      <trkpt lat="45.7777" lon="4.83903">
        <ele>230</ele>
        <time>2012-01-06T19:17:27Z</time>
      </trkpt>
      <trkpt lat="45.77771" lon="4.83906">
        <ele>230</ele>
        <time>2012-01-06T19:17:28Z</time>
      </trkpt>
      <trkpt lat="45.77773" lon="4.83915">
        <ele>229</ele>
        <time>2012-01-06T19:17:32Z</time>
      </trkpt>
      <trkpt lat="45.77776" lon="4.83919">
        <ele>218</ele>
        <time>2012-01-06T19:17:35Z</time>
      </trkpt>
      <trkpt lat="45.77777" lon="4.83921">
        <ele>217</ele>
        <time>2012-01-06T19:17:36Z</time>
      </trkpt>
      <trkpt lat="45.77782" lon="4.83925">
        <ele>217</ele>
        <time>2012-01-06T19:17:39Z</time>
      </trkpt>
      <trkpt lat="45.77789" lon="4.83937">
        <ele>215</ele>
        <time>2012-01-06T19:17:44Z</time>
      </trkpt>
      <trkpt lat="45.77791" lon="4.8394">
        <ele>215</ele>
        <time>2012-01-06T19:17:45Z</time>
      </trkpt>
      <trkpt lat="45.77797" lon="4.83954">
        <ele>213</ele>
        <time>2012-01-06T19:17:48Z</time>
      </trkpt>
      <trkpt lat="45.778" lon="4.83963">
        <ele>212</ele>
        <time>2012-01-06T19:17:50Z</time>
      </trkpt>
      <trkpt lat="45.77811" lon="4.83978">
        <ele>210</ele>
        <time>2012-01-06T19:17:54Z</time>
      </trkpt>
      <trkpt lat="45.77814" lon="4.83984">
        <ele>209</ele>
        <time>2012-01-06T19:17:56Z</time>
      </trkpt>
      <trkpt lat="45.77822" lon="4.83986">
        <ele>209</ele>
        <time>2012-01-06T19:17:59Z</time>
      </trkpt>
      <trkpt lat="45.77831" lon="4.83991">
        <ele>207</ele>
        <time>2012-01-06T19:18:04Z</time>
      </trkpt>
      <trkpt lat="45.77833" lon="4.83993">
        <ele>207</ele>
        <time>2012-01-06T19:18:05Z</time>
      </trkpt>
      <trkpt lat="45.77842" lon="4.83994">
        <ele>207</ele>
        <time>2012-01-06T19:18:09Z</time>
      </trkpt>
      <trkpt lat="45.77851" lon="4.83994">
        <ele>207</ele>
        <time>2012-01-06T19:18:14Z</time>
      </trkpt>
      <trkpt lat="45.77853" lon="4.83995">
        <ele>207</ele>
        <time>2012-01-06T19:18:15Z</time>
      </trkpt>
      <trkpt lat="45.77863" lon="4.84">
        <ele>194</ele>
        <time>2012-01-06T19:18:20Z</time>
      </trkpt>
      <trkpt lat="45.77866" lon="4.84001">
        <ele>194</ele>
        <time>2012-01-06T19:18:21Z</time>
      </trkpt>
      <trkpt lat="45.77871" lon="4.84005">
        <ele>193</ele>
        <time>2012-01-06T19:18:24Z</time>
      </trkpt>
      <trkpt lat="45.77873" lon="4.84005">
        <ele>193</ele>
        <time>2012-01-06T19:18:25Z</time>
      </trkpt>
      <trkpt lat="45.77877" lon="4.84011">
        <ele>192</ele>
        <time>2012-01-06T19:18:29Z</time>
      </trkpt>
      <trkpt lat="45.7788" lon="4.84013">
        <ele>192</ele>
        <time>2012-01-06T19:18:31Z</time>
      </trkpt>
      <trkpt lat="45.77885" lon="4.84024">
        <ele>191</ele>
        <time>2012-01-06T19:18:38Z</time>
      </trkpt>
      <trkpt lat="45.77888" lon="4.84036">
        <ele>189</ele>
        <time>2012-01-06T19:18:44Z</time>
      </trkpt>
      <trkpt lat="45.77891" lon="4.84046">
        <ele>188</ele>
        <time>2012-01-06T19:18:49Z</time>
      </trkpt>
      <trkpt lat="45.77892" lon="4.8405">
        <ele>188</ele>
        <time>2012-01-06T19:18:51Z</time>
      </trkpt>
      <trkpt lat="45.77893" lon="4.84056">
        <ele>187</ele>
        <time>2012-01-06T19:18:53Z</time>
      </trkpt>
      <trkpt lat="45.77895" lon="4.84062">
        <ele>186</ele>
        <time>2012-01-06T19:18:57Z</time>
      </trkpt>
      <trkpt lat="45.77896" lon="4.84064">
        <ele>186</ele>
        <time>2012-01-06T19:19:01Z</time>
      </trkpt>
      <trkpt lat="45.77896" lon="4.84065">
        <ele>186</ele>
        <time>2012-01-06T19:19:02Z</time>
      </trkpt>
      <trkpt lat="45.77905" lon="4.84061">
        <ele>185</ele>
        <time>2012-01-06T19:19:23Z</time>
      </trkpt>
      <trkpt lat="45.77907" lon="4.8406">
        <ele>185</ele>
        <time>2012-01-06T19:19:25Z</time>
      </trkpt>
      <trkpt lat="45.77907" lon="4.8406">
        <ele>186</ele>
        <time>2012-01-06T19:19:26Z</time>
      </trkpt>
      <trkpt lat="45.77909" lon="4.8406">
        <ele>185</ele>
        <time>2012-01-06T19:19:32Z</time>
      </trkpt>
      <trkpt lat="45.7791" lon="4.84061">
        <ele>185</ele>
        <time>2012-01-06T19:19:33Z</time>
      </trkpt>
      <trkpt lat="45.7791" lon="4.84069">
        <ele>184</ele>
        <time>2012-01-06T19:19:38Z</time>
      </trkpt>
      <trkpt lat="45.77911" lon="4.84072">
        <ele>183</ele>
        <time>2012-01-06T19:19:40Z</time>
      </trkpt>
      <trkpt lat="45.77913" lon="4.84078">
        <ele>181</ele>
        <time>2012-01-06T19:19:43Z</time>
      </trkpt>
      <trkpt lat="45.77914" lon="4.84078">
        <ele>181</ele>
        <time>2012-01-06T19:19:44Z</time>
      </trkpt>
      <trkpt lat="45.77918" lon="4.84081">
        <ele>180</ele>
        <time>2012-01-06T19:19:48Z</time>
      </trkpt>
      <trkpt lat="45.77913" lon="4.84084">
        <ele>178</ele>
        <time>2012-01-06T19:19:56Z</time>
      </trkpt>
      <trkpt lat="45.77908" lon="4.84088">
        <ele>178</ele>
        <time>2012-01-06T19:19:59Z</time>
      </trkpt>
      <trkpt lat="45.77899" lon="4.84101">
        <ele>176</ele>
        <time>2012-01-06T19:20:06Z</time>
      </trkpt>
      <trkpt lat="45.77897" lon="4.84104">
        <ele>176</ele>
        <time>2012-01-06T19:20:13Z</time>
      </trkpt>
      <trkpt lat="45.77896" lon="4.84112">
        <ele>176</ele>
        <time>2012-01-06T19:20:23Z</time>
      </trkpt>
      <trkpt lat="45.77894" lon="4.84116">
        <ele>175</ele>
        <time>2012-01-06T19:20:26Z</time>
      </trkpt>
      <trkpt lat="45.77897" lon="4.8412">
        <ele>175</ele>
        <time>2012-01-06T19:20:30Z</time>
      </trkpt>
      <trkpt lat="45.77899" lon="4.84121">
        <ele>175</ele>
        <time>2012-01-06T19:20:34Z</time>
      </trkpt>
      <trkpt lat="45.77899" lon="4.84122">
        <ele>175</ele>
        <time>2012-01-06T19:20:35Z</time>
      </trkpt>
      <trkpt lat="45.77901" lon="4.84128">
        <ele>175</ele>
        <time>2012-01-06T19:20:48Z</time>
      </trkpt>
      <trkpt lat="45.77902" lon="4.84132">
        <ele>174</ele>
        <time>2012-01-06T19:20:49Z</time>
      </trkpt>
      <trkpt lat="45.77899" lon="4.84144">
        <ele>174</ele>
        <time>2012-01-06T19:20:52Z</time>
      </trkpt>
      <trkpt lat="45.77898" lon="4.84148">
        <ele>173</ele>
        <time>2012-01-06T19:20:53Z</time>
      </trkpt>
      <trkpt lat="45.77894" lon="4.84162">
        <ele>173</ele>
        <time>2012-01-06T19:20:57Z</time>
      </trkpt>
      <trkpt lat="45.77891" lon="4.84171">
        <ele>169</ele>
        <time>2012-01-06T19:21:00Z</time>
      </trkpt>
      <trkpt lat="45.77888" lon="4.84177">
        <ele>169</ele>
        <time>2012-01-06T19:21:02Z</time>
      </trkpt>
      <trkpt lat="45.7788" lon="4.84196">
        <ele>168</ele>
        <time>2012-01-06T19:21:08Z</time>
      </trkpt>
      <trkpt lat="45.77872" lon="4.84219">
        <ele>167</ele>
        <time>2012-01-06T19:21:15Z</time>
      </trkpt>
      <trkpt lat="45.77864" lon="4.84239">
        <ele>167</ele>
        <time>2012-01-06T19:21:21Z</time>
      </trkpt>
      <trkpt lat="45.77863" lon="4.84242">
        <ele>167</ele>
        <time>2012-01-06T19:21:22Z</time>
      </trkpt>
      <trkpt lat="45.77859" lon="4.84253">
        <ele>166</ele>
        <time>2012-01-06T19:21:25Z</time>
      </trkpt>
      <trkpt lat="45.77854" lon="4.84268">
        <ele>166</ele>
        <time>2012-01-06T19:21:29Z</time>
      </trkpt>
      <trkpt lat="45.7785" lon="4.84279">
        <ele>166</ele>
        <time>2012-01-06T19:21:32Z</time>
      </trkpt>
      <trkpt lat="45.77845" lon="4.84292">
        <ele>166</ele>
        <time>2012-01-06T19:21:36Z</time>
      </trkpt>
      <trkpt lat="45.77836" lon="4.84317">
        <ele>167</ele>
        <time>2012-01-06T19:21:42Z</time>
      </trkpt>
      <trkpt lat="45.77833" lon="4.84324">
        <ele>167</ele>
        <time>2012-01-06T19:21:44Z</time>
      </trkpt>
      <trkpt lat="45.77828" lon="4.84341">
        <ele>167</ele>
        <time>2012-01-06T19:21:49Z</time>
      </trkpt>
      <trkpt lat="45.77818" lon="4.84361">
        <ele>167</ele>
        <time>2012-01-06T19:21:56Z</time>
      </trkpt>
      <trkpt lat="45.77817" lon="4.84364">
        <ele>167</ele>
        <time>2012-01-06T19:21:57Z</time>
      </trkpt>
      <trkpt lat="45.77813" lon="4.84376">
        <ele>167</ele>
        <time>2012-01-06T19:22:00Z</time>
      </trkpt>
      <trkpt lat="45.77809" lon="4.84387">
        <ele>167</ele>
        <time>2012-01-06T19:22:03Z</time>
      </trkpt>
      <trkpt lat="45.77805" lon="4.84398">
        <ele>167</ele>
        <time>2012-01-06T19:22:06Z</time>
      </trkpt>
      <trkpt lat="45.778" lon="4.84412">
        <ele>167</ele>
        <time>2012-01-06T19:22:10Z</time>
      </trkpt>
      <trkpt lat="45.77799" lon="4.84416">
        <ele>167</ele>
        <time>2012-01-06T19:22:11Z</time>
      </trkpt>
      <trkpt lat="45.77789" lon="4.84435">
        <ele>171</ele>
        <time>2012-01-06T19:22:17Z</time>
      </trkpt>
      <trkpt lat="45.77784" lon="4.84457">
        <ele>172</ele>
        <time>2012-01-06T19:22:21Z</time>
      </trkpt>
      <trkpt lat="45.77783" lon="4.84463">
        <ele>172</ele>
        <time>2012-01-06T19:22:22Z</time>
      </trkpt>
      <trkpt lat="45.77778" lon="4.84477">
        <ele>173</ele>
        <time>2012-01-06T19:22:25Z</time>
      </trkpt>
      <trkpt lat="45.7777" lon="4.8448">
        <ele>173</ele>
        <time>2012-01-06T19:22:28Z</time>
      </trkpt>
      <trkpt lat="45.77765" lon="4.84483">
        <ele>173</ele>
        <time>2012-01-06T19:22:30Z</time>
      </trkpt>
      <trkpt lat="45.77762" lon="4.84484">
        <ele>173</ele>
        <time>2012-01-06T19:22:31Z</time>
      </trkpt>
      <trkpt lat="45.77755" lon="4.84487">
        <ele>174</ele>
        <time>2012-01-06T19:22:34Z</time>
      </trkpt>
      <trkpt lat="45.77752" lon="4.84488">
        <ele>174</ele>
        <time>2012-01-06T19:22:35Z</time>
      </trkpt>
      <trkpt lat="45.77741" lon="4.84497">
        <ele>174</ele>
        <time>2012-01-06T19:22:40Z</time>
      </trkpt>
      <trkpt lat="45.77735" lon="4.84503">
        <ele>176</ele>
        <time>2012-01-06T19:22:43Z</time>
      </trkpt>
      <trkpt lat="45.7773" lon="4.84507">
        <ele>176</ele>
        <time>2012-01-06T19:22:45Z</time>
      </trkpt>
    </trkseg>
  </trk>
</gpx>